<?xml version="1.0" encoding="utf-8"?>
<gpx xmlns:xsi="http://www.w3.org/2001/XMLSchema-instance" xmlns:xsd="http://www.w3.org/2001/XMLSchema" version="1.1" creator="Shapelink.com" xmlns="http://www.topografix.com/GPX/1/1" xmlns:gpxtpx="http://www.garmin.com/xmlschemas/TrackPointExtension/v1">
  <metadata>
    <name>Ejecutar 9.04 km, 2019-11-18</name>
    <desc></desc>
    <author><name>Per Rooth</name></author> 
    <time>2019-11-18T17:39:46Z</time>
  </metadata>
  <trk>
    <name>Ejecutar 9.04 km, 2019-11-18</name>
    <trkseg>
      <trkpt lat="56.891273107477" lon="14.824073191031">
        <ele>172</ele>
        <time>2019-11-18T17:39:46Z</time>
      </trkpt>
      <trkpt lat="56.89120663901" lon="14.824108059735">
        <ele>171.8</ele>
        <time>2019-11-18T17:39:52Z</time>
      </trkpt>
      <trkpt lat="56.891071774239" lon="14.824339903089">
        <ele>172.8</ele>
        <time>2019-11-18T17:39:59Z</time>
      </trkpt>
      <trkpt lat="56.891025338513" lon="14.824405868642">
        <ele>173.6</ele>
        <time>2019-11-18T17:40:01Z</time>
      </trkpt>
      <trkpt lat="56.890934478717" lon="14.824512821686">
        <ele>172.6</ele>
        <time>2019-11-18T17:40:05Z</time>
      </trkpt>
      <trkpt lat="56.890876811245" lon="14.824653134692">
        <ele>171.4</ele>
        <time>2019-11-18T17:40:09Z</time>
      </trkpt>
      <trkpt lat="56.890846720224" lon="14.824738546253">
        <ele>170.4</ele>
        <time>2019-11-18T17:40:11Z</time>
      </trkpt>
      <trkpt lat="56.890828950596" lon="14.824783389418">
        <ele>170.2</ele>
        <time>2019-11-18T17:40:12Z</time>
      </trkpt>
      <trkpt lat="56.890697438585" lon="14.825076923556">
        <ele>169.2</ele>
        <time>2019-11-18T17:40:19Z</time>
      </trkpt>
      <trkpt lat="56.89067606474" lon="14.825117072857">
        <ele>169</ele>
        <time>2019-11-18T17:40:20Z</time>
      </trkpt>
      <trkpt lat="56.890529968223" lon="14.825325698348">
        <ele>168.6</ele>
        <time>2019-11-18T17:40:27Z</time>
      </trkpt>
      <trkpt lat="56.890494848062" lon="14.825397950326">
        <ele>168.6</ele>
        <time>2019-11-18T17:40:29Z</time>
      </trkpt>
      <trkpt lat="56.890412453985" lon="14.825692071197">
        <ele>168.4</ele>
        <time>2019-11-18T17:40:35Z</time>
      </trkpt>
      <trkpt lat="56.890341291654" lon="14.82589466172">
        <ele>167.8</ele>
        <time>2019-11-18T17:40:40Z</time>
      </trkpt>
      <trkpt lat="56.89030390838" lon="14.826009577569">
        <ele>167.6</ele>
        <time>2019-11-18T17:40:43Z</time>
      </trkpt>
      <trkpt lat="56.890291754625" lon="14.826291041771">
        <ele>167.4</ele>
        <time>2019-11-18T17:40:49Z</time>
      </trkpt>
      <trkpt lat="56.890314050479" lon="14.826653642765">
        <ele>167</ele>
        <time>2019-11-18T17:40:57Z</time>
      </trkpt>
      <trkpt lat="56.890280271422" lon="14.827007442764">
        <ele>167</ele>
        <time>2019-11-18T17:41:05Z</time>
      </trkpt>
      <trkpt lat="56.890265100183" lon="14.827204333595">
        <ele>166.8</ele>
        <time>2019-11-18T17:41:10Z</time>
      </trkpt>
      <trkpt lat="56.890264094355" lon="14.827516643189">
        <ele>166.8</ele>
        <time>2019-11-18T17:41:16Z</time>
      </trkpt>
      <trkpt lat="56.890253365523" lon="14.827589398081">
        <ele>166.6</ele>
        <time>2019-11-18T17:41:18Z</time>
      </trkpt>
      <trkpt lat="56.890168540695" lon="14.82788452478">
        <ele>166.2</ele>
        <time>2019-11-18T17:41:24Z</time>
      </trkpt>
      <trkpt lat="56.890123278435" lon="14.828137574341">
        <ele>166.8</ele>
        <time>2019-11-18T17:41:30Z</time>
      </trkpt>
      <trkpt lat="56.890163427736" lon="14.828286939799">
        <ele>168</ele>
        <time>2019-11-18T17:41:34Z</time>
      </trkpt>
      <trkpt lat="56.890250515677" lon="14.828583323783">
        <ele>167.4</ele>
        <time>2019-11-18T17:41:41Z</time>
      </trkpt>
      <trkpt lat="56.890316397411" lon="14.828916588127">
        <ele>168</ele>
        <time>2019-11-18T17:41:50Z</time>
      </trkpt>
      <trkpt lat="56.890379177842" lon="14.82906553449">
        <ele>169</ele>
        <time>2019-11-18T17:41:54Z</time>
      </trkpt>
      <trkpt lat="56.890397869479" lon="14.829118424279">
        <ele>169.6</ele>
        <time>2019-11-18T17:41:56Z</time>
      </trkpt>
      <trkpt lat="56.890419410962" lon="14.829179025416">
        <ele>170.2</ele>
        <time>2019-11-18T17:41:58Z</time>
      </trkpt>
      <trkpt lat="56.890430977984" lon="14.829228394807">
        <ele>170.8</ele>
        <time>2019-11-18T17:42:00Z</time>
      </trkpt>
      <trkpt lat="56.890438186418" lon="14.829272399782">
        <ele>171.6</ele>
        <time>2019-11-18T17:42:02Z</time>
      </trkpt>
      <trkpt lat="56.890451262182" lon="14.82930190407">
        <ele>172</ele>
        <time>2019-11-18T17:42:03Z</time>
      </trkpt>
      <trkpt lat="56.890569949886" lon="14.829535172347">
        <ele>172.6</ele>
        <time>2019-11-18T17:42:11Z</time>
      </trkpt>
      <trkpt lat="56.890590234084" lon="14.829657715725">
        <ele>172.8</ele>
        <time>2019-11-18T17:42:14Z</time>
      </trkpt>
      <trkpt lat="56.890706993951" lon="14.829803812242">
        <ele>173.4</ele>
        <time>2019-11-18T17:42:22Z</time>
      </trkpt>
      <trkpt lat="56.890737001153" lon="14.829827113924">
        <ele>173.8</ele>
        <time>2019-11-18T17:42:24Z</time>
      </trkpt>
      <trkpt lat="56.890826352207" lon="14.829926607077">
        <ele>175.2</ele>
        <time>2019-11-18T17:42:29Z</time>
      </trkpt>
      <trkpt lat="56.890865914775" lon="14.829995254838">
        <ele>176.4</ele>
        <time>2019-11-18T17:42:32Z</time>
      </trkpt>
      <trkpt lat="56.890934059622" lon="14.830121570071">
        <ele>177.4</ele>
        <time>2019-11-18T17:42:36Z</time>
      </trkpt>
      <trkpt lat="56.891056854457" lon="14.830413595467">
        <ele>178.4</ele>
        <time>2019-11-18T17:42:43Z</time>
      </trkpt>
      <trkpt lat="56.891113683739" lon="14.830662202621">
        <ele>179.8</ele>
        <time>2019-11-18T17:42:48Z</time>
      </trkpt>
      <trkpt lat="56.891198089472" lon="14.830987587979">
        <ele>180.4</ele>
        <time>2019-11-18T17:42:54Z</time>
      </trkpt>
      <trkpt lat="56.891222313163" lon="14.831324959454">
        <ele>179.2</ele>
        <time>2019-11-18T17:43:02Z</time>
      </trkpt>
      <trkpt lat="56.891203705345" lon="14.831556048437">
        <ele>178.8</ele>
        <time>2019-11-18T17:43:07Z</time>
      </trkpt>
      <trkpt lat="56.891226671751" lon="14.83167230539">
        <ele>179</ele>
        <time>2019-11-18T17:43:10Z</time>
      </trkpt>
      <trkpt lat="56.891200017309" lon="14.831890905342">
        <ele>178.6</ele>
        <time>2019-11-18T17:43:16Z</time>
      </trkpt>
      <trkpt lat="56.891195407264" lon="14.83194723171">
        <ele>178.8</ele>
        <time>2019-11-18T17:43:18Z</time>
      </trkpt>
      <trkpt lat="56.891198173291" lon="14.832023171724">
        <ele>179.2</ele>
        <time>2019-11-18T17:43:20Z</time>
      </trkpt>
      <trkpt lat="56.891184091699" lon="14.832318046966">
        <ele>179.4</ele>
        <time>2019-11-18T17:43:26Z</time>
      </trkpt>
      <trkpt lat="56.89120412444" lon="14.832405554002">
        <ele>180</ele>
        <time>2019-11-18T17:43:28Z</time>
      </trkpt>
      <trkpt lat="56.89127117964" lon="14.832608312163">
        <ele>181.2</ele>
        <time>2019-11-18T17:43:34Z</time>
      </trkpt>
      <trkpt lat="56.891263803568" lon="14.832681402331">
        <ele>182.6</ele>
        <time>2019-11-18T17:43:37Z</time>
      </trkpt>
      <trkpt lat="56.89125273946" lon="14.832735465586">
        <ele>183.6</ele>
        <time>2019-11-18T17:43:39Z</time>
      </trkpt>
      <trkpt lat="56.891250727804" lon="14.832819955138">
        <ele>184.6</ele>
        <time>2019-11-18T17:43:42Z</time>
      </trkpt>
      <trkpt lat="56.891248967605" lon="14.832881645922">
        <ele>185.6</ele>
        <time>2019-11-18T17:43:44Z</time>
      </trkpt>
      <trkpt lat="56.891240082791" lon="14.832909641468">
        <ele>186</ele>
        <time>2019-11-18T17:43:45Z</time>
      </trkpt>
      <trkpt lat="56.891218289851" lon="14.832999914531">
        <ele>186.6</ele>
        <time>2019-11-18T17:43:47Z</time>
      </trkpt>
      <trkpt lat="56.891180487482" lon="14.833108208679">
        <ele>186.8</ele>
        <time>2019-11-18T17:43:50Z</time>
      </trkpt>
      <trkpt lat="56.891187193002" lon="14.833114495104">
        <ele>186.6</ele>
        <time>2019-11-18T17:43:54Z</time>
      </trkpt>
      <trkpt lat="56.891194149979" lon="14.83312488866">
        <ele>186.6</ele>
        <time>2019-11-18T17:43:55Z</time>
      </trkpt>
      <trkpt lat="56.891203453888" lon="14.833120278615">
        <ele>186.6</ele>
        <time>2019-11-18T17:43:56Z</time>
      </trkpt>
      <trkpt lat="56.891262127188" lon="14.833151459283">
        <ele>186.6</ele>
        <time>2019-11-18T17:44:00Z</time>
      </trkpt>
      <trkpt lat="56.891298336996" lon="14.83313578513">
        <ele>186.2</ele>
        <time>2019-11-18T17:44:03Z</time>
      </trkpt>
      <trkpt lat="56.891372852087" lon="14.833062192048">
        <ele>186</ele>
        <time>2019-11-18T17:44:08Z</time>
      </trkpt>
      <trkpt lat="56.891426496247" lon="14.833068227016">
        <ele>185.6</ele>
        <time>2019-11-18T17:44:11Z</time>
      </trkpt>
      <trkpt lat="56.891462622236" lon="14.833051547035">
        <ele>184.6</ele>
        <time>2019-11-18T17:44:13Z</time>
      </trkpt>
      <trkpt lat="56.89153101854" lon="14.833070741586">
        <ele>184</ele>
        <time>2019-11-18T17:44:17Z</time>
      </trkpt>
      <trkpt lat="56.891683317663" lon="14.833129247248">
        <ele>183.4</ele>
        <time>2019-11-18T17:44:25Z</time>
      </trkpt>
      <trkpt lat="56.891702428395" lon="14.833124637203">
        <ele>183.2</ele>
        <time>2019-11-18T17:44:26Z</time>
      </trkpt>
      <trkpt lat="56.891757916573" lon="14.833063365514">
        <ele>182.8</ele>
        <time>2019-11-18T17:44:31Z</time>
      </trkpt>
      <trkpt lat="56.891759676772" lon="14.833089014128">
        <ele>182.6</ele>
        <time>2019-11-18T17:44:33Z</time>
      </trkpt>
      <trkpt lat="56.891776021477" lon="14.833178029906">
        <ele>182.8</ele>
        <time>2019-11-18T17:44:36Z</time>
      </trkpt>
      <trkpt lat="56.891854811337" lon="14.833490423319">
        <ele>183.6</ele>
        <time>2019-11-18T17:44:43Z</time>
      </trkpt>
      <trkpt lat="56.891884986177" lon="14.83363786094">
        <ele>184</ele>
        <time>2019-11-18T17:44:48Z</time>
      </trkpt>
      <trkpt lat="56.891893619534" lon="14.833678848431">
        <ele>184.6</ele>
        <time>2019-11-18T17:44:49Z</time>
      </trkpt>
      <trkpt lat="56.891920273976" lon="14.833798206687">
        <ele>185</ele>
        <time>2019-11-18T17:44:52Z</time>
      </trkpt>
      <trkpt lat="56.891923542917" lon="14.833872805597">
        <ele>185.4</ele>
        <time>2019-11-18T17:44:55Z</time>
      </trkpt>
      <trkpt lat="56.891914406646" lon="14.833914379821">
        <ele>185.8</ele>
        <time>2019-11-18T17:44:57Z</time>
      </trkpt>
      <trkpt lat="56.8919115568" lon="14.833934664019">
        <ele>186.2</ele>
        <time>2019-11-18T17:44:58Z</time>
      </trkpt>
      <trkpt lat="56.891918849053" lon="14.833987134713">
        <ele>187.2</ele>
        <time>2019-11-18T17:45:00Z</time>
      </trkpt>
      <trkpt lat="56.891927398591" lon="14.83404689766">
        <ele>188.4</ele>
        <time>2019-11-18T17:45:02Z</time>
      </trkpt>
      <trkpt lat="56.891924297288" lon="14.834100374182">
        <ele>189.4</ele>
        <time>2019-11-18T17:45:04Z</time>
      </trkpt>
      <trkpt lat="56.891922201813" lon="14.834128705004">
        <ele>189.8</ele>
        <time>2019-11-18T17:45:05Z</time>
      </trkpt>
      <trkpt lat="56.891918094682" lon="14.834206237579">
        <ele>190.4</ele>
        <time>2019-11-18T17:45:08Z</time>
      </trkpt>
      <trkpt lat="56.89191239499" lon="14.834256528979">
        <ele>190.8</ele>
        <time>2019-11-18T17:45:11Z</time>
      </trkpt>
      <trkpt lat="56.891907282031" lon="14.834277232272">
        <ele>190.8</ele>
        <time>2019-11-18T17:45:12Z</time>
      </trkpt>
      <trkpt lat="56.891842657582" lon="14.834419137839">
        <ele>191.4</ele>
        <time>2019-11-18T17:45:19Z</time>
      </trkpt>
      <trkpt lat="56.891811309276" lon="14.834415868898">
        <ele>191.4</ele>
        <time>2019-11-18T17:45:21Z</time>
      </trkpt>
      <trkpt lat="56.891743248248" lon="14.83446766904">
        <ele>191.6</ele>
        <time>2019-11-18T17:45:25Z</time>
      </trkpt>
      <trkpt lat="56.891611736237" lon="14.834690459942">
        <ele>190.6</ele>
        <time>2019-11-18T17:45:34Z</time>
      </trkpt>
      <trkpt lat="56.891564797597" lon="14.834873101543">
        <ele>189.8</ele>
        <time>2019-11-18T17:45:38Z</time>
      </trkpt>
      <trkpt lat="56.891426747704" lon="14.835130844968">
        <ele>188.8</ele>
        <time>2019-11-18T17:45:46Z</time>
      </trkpt>
      <trkpt lat="56.891407553153" lon="14.835171664821">
        <ele>188.8</ele>
        <time>2019-11-18T17:45:47Z</time>
      </trkpt>
      <trkpt lat="56.891328679474" lon="14.835306194316">
        <ele>187.6</ele>
        <time>2019-11-18T17:45:51Z</time>
      </trkpt>
      <trkpt lat="56.891225582104" lon="14.835469892823">
        <ele>186.6</ele>
        <time>2019-11-18T17:45:56Z</time>
      </trkpt>
      <trkpt lat="56.891137572154" lon="14.835758230183">
        <ele>186.8</ele>
        <time>2019-11-18T17:46:02Z</time>
      </trkpt>
      <trkpt lat="56.89108342508" lon="14.835929556219">
        <ele>187.2</ele>
        <time>2019-11-18T17:46:06Z</time>
      </trkpt>
      <trkpt lat="56.891070349316" lon="14.835961407439">
        <ele>187</ele>
        <time>2019-11-18T17:46:07Z</time>
      </trkpt>
      <trkpt lat="56.890988290515" lon="14.836143378488">
        <ele>185.2</ele>
        <time>2019-11-18T17:46:13Z</time>
      </trkpt>
      <trkpt lat="56.890929281939" lon="14.836314872162">
        <ele>184.2</ele>
        <time>2019-11-18T17:46:17Z</time>
      </trkpt>
      <trkpt lat="56.890892736855" lon="14.836404558492">
        <ele>183.6</ele>
        <time>2019-11-18T17:46:20Z</time>
      </trkpt>
      <trkpt lat="56.890790812951" lon="14.836677556975">
        <ele>183.6</ele>
        <time>2019-11-18T17:46:27Z</time>
      </trkpt>
      <trkpt lat="56.890683440812" lon="14.836963966498">
        <ele>183.2</ele>
        <time>2019-11-18T17:46:35Z</time>
      </trkpt>
      <trkpt lat="56.890645722262" lon="14.837044097462">
        <ele>183</ele>
        <time>2019-11-18T17:46:37Z</time>
      </trkpt>
      <trkpt lat="56.890544049815" lon="14.83733679341">
        <ele>182.6</ele>
        <time>2019-11-18T17:46:44Z</time>
      </trkpt>
      <trkpt lat="56.890524268531" lon="14.837362944938">
        <ele>182.4</ele>
        <time>2019-11-18T17:46:45Z</time>
      </trkpt>
      <trkpt lat="56.890503816695" lon="14.837372584123">
        <ele>182</ele>
        <time>2019-11-18T17:46:46Z</time>
      </trkpt>
      <trkpt lat="56.89046484086" lon="14.837381049842">
        <ele>181.4</ele>
        <time>2019-11-18T17:46:48Z</time>
      </trkpt>
      <trkpt lat="56.890335256686" lon="14.837299242498">
        <ele>181.2</ele>
        <time>2019-11-18T17:46:54Z</time>
      </trkpt>
      <trkpt lat="56.890125457729" lon="14.837265295803">
        <ele>181.8</ele>
        <time>2019-11-18T17:47:02Z</time>
      </trkpt>
      <trkpt lat="56.889972488054" lon="14.837158342759">
        <ele>183</ele>
        <time>2019-11-18T17:47:09Z</time>
      </trkpt>
      <trkpt lat="56.889954802245" lon="14.837137052733">
        <ele>183</ele>
        <time>2019-11-18T17:47:10Z</time>
      </trkpt>
      <trkpt lat="56.889812393764" lon="14.836920296799">
        <ele>182.8</ele>
        <time>2019-11-18T17:47:17Z</time>
      </trkpt>
      <trkpt lat="56.889747014944" lon="14.836854498884">
        <ele>183</ele>
        <time>2019-11-18T17:47:20Z</time>
      </trkpt>
      <trkpt lat="56.8896568257" lon="14.836809404262">
        <ele>184.4</ele>
        <time>2019-11-18T17:47:24Z</time>
      </trkpt>
      <trkpt lat="56.889564708619" lon="14.836702702675">
        <ele>185.4</ele>
        <time>2019-11-18T17:47:29Z</time>
      </trkpt>
      <trkpt lat="56.889553476873" lon="14.836693817861">
        <ele>185.4</ele>
        <time>2019-11-18T17:47:30Z</time>
      </trkpt>
      <trkpt lat="56.88948583494" lon="14.836601365504">
        <ele>186.4</ele>
        <time>2019-11-18T17:47:34Z</time>
      </trkpt>
      <trkpt lat="56.889466137475" lon="14.83657068775">
        <ele>186.8</ele>
        <time>2019-11-18T17:47:35Z</time>
      </trkpt>
      <trkpt lat="56.889428586563" lon="14.836533555933">
        <ele>187.6</ele>
        <time>2019-11-18T17:47:37Z</time>
      </trkpt>
      <trkpt lat="56.889372344014" lon="14.836459124661">
        <ele>188.8</ele>
        <time>2019-11-18T17:47:41Z</time>
      </trkpt>
      <trkpt lat="56.889302522787" lon="14.836322080596">
        <ele>189.2</ele>
        <time>2019-11-18T17:47:46Z</time>
      </trkpt>
      <trkpt lat="56.88922767242" lon="14.836234489741">
        <ele>189.8</ele>
        <time>2019-11-18T17:47:50Z</time>
      </trkpt>
      <trkpt lat="56.889105045223" lon="14.836130135086">
        <ele>188.6</ele>
        <time>2019-11-18T17:47:56Z</time>
      </trkpt>
      <trkpt lat="56.889051903977" lon="14.836113958019">
        <ele>187</ele>
        <time>2019-11-18T17:47:59Z</time>
      </trkpt>
      <trkpt lat="56.888986022243" lon="14.83606693556">
        <ele>185.8</ele>
        <time>2019-11-18T17:48:02Z</time>
      </trkpt>
      <trkpt lat="56.888801368986" lon="14.836023936413">
        <ele>185</ele>
        <time>2019-11-18T17:48:10Z</time>
      </trkpt>
      <trkpt lat="56.888771948517" lon="14.836034749064">
        <ele>184.8</ele>
        <time>2019-11-18T17:48:11Z</time>
      </trkpt>
      <trkpt lat="56.888660050152" lon="14.836079927505">
        <ele>183.6</ele>
        <time>2019-11-18T17:48:15Z</time>
      </trkpt>
      <trkpt lat="56.888550331081" lon="14.836116891684">
        <ele>182.6</ele>
        <time>2019-11-18T17:48:19Z</time>
      </trkpt>
      <trkpt lat="56.888437343069" lon="14.836093673821">
        <ele>181.4</ele>
        <time>2019-11-18T17:48:23Z</time>
      </trkpt>
      <trkpt lat="56.88838193871" lon="14.836104235015">
        <ele>180.4</ele>
        <time>2019-11-18T17:48:26Z</time>
      </trkpt>
      <trkpt lat="56.888191166666" lon="14.836084369912">
        <ele>179.2</ele>
        <time>2019-11-18T17:48:32Z</time>
      </trkpt>
      <trkpt lat="56.888132828642" lon="14.836054027434">
        <ele>179</ele>
        <time>2019-11-18T17:48:34Z</time>
      </trkpt>
      <trkpt lat="56.887958485122" lon="14.835947242028">
        <ele>180</ele>
        <time>2019-11-18T17:48:41Z</time>
      </trkpt>
      <trkpt lat="56.88778850019" lon="14.835820172424">
        <ele>179.4</ele>
        <time>2019-11-18T17:48:49Z</time>
      </trkpt>
      <trkpt lat="56.887663526061" lon="14.835599896092">
        <ele>179</ele>
        <time>2019-11-18T17:48:57Z</time>
      </trkpt>
      <trkpt lat="56.88750183921" lon="14.835384565081">
        <ele>178.6</ele>
        <time>2019-11-18T17:49:03Z</time>
      </trkpt>
      <trkpt lat="56.887443836462" lon="14.835347936178">
        <ele>178.2</ele>
        <time>2019-11-18T17:49:05Z</time>
      </trkpt>
      <trkpt lat="56.887262284508" lon="14.835293956742">
        <ele>178</ele>
        <time>2019-11-18T17:49:14Z</time>
      </trkpt>
      <trkpt lat="56.887247532364" lon="14.835291106896">
        <ele>177.8</ele>
        <time>2019-11-18T17:49:16Z</time>
      </trkpt>
      <trkpt lat="56.887248035278" lon="14.835259339495">
        <ele>178.8</ele>
        <time>2019-11-18T17:49:19Z</time>
      </trkpt>
      <trkpt lat="56.887240910663" lon="14.83522958375">
        <ele>179</ele>
        <time>2019-11-18T17:49:21Z</time>
      </trkpt>
      <trkpt lat="56.88723110384" lon="14.835201169109">
        <ele>179.2</ele>
        <time>2019-11-18T17:49:22Z</time>
      </trkpt>
      <trkpt lat="56.887210400547" lon="14.83515582303">
        <ele>179.6</ele>
        <time>2019-11-18T17:49:24Z</time>
      </trkpt>
      <trkpt lat="56.887187434141" lon="14.835116260462">
        <ele>180.4</ele>
        <time>2019-11-18T17:49:27Z</time>
      </trkpt>
      <trkpt lat="56.887157510758" lon="14.835048953805">
        <ele>181.8</ele>
        <time>2019-11-18T17:49:30Z</time>
      </trkpt>
      <trkpt lat="56.887142674795" lon="14.834976869465">
        <ele>183.2</ele>
        <time>2019-11-18T17:49:33Z</time>
      </trkpt>
      <trkpt lat="56.887142171881" lon="14.834949544471">
        <ele>183.8</ele>
        <time>2019-11-18T17:49:34Z</time>
      </trkpt>
      <trkpt lat="56.887147620116" lon="14.834934792327">
        <ele>184.2</ele>
        <time>2019-11-18T17:49:35Z</time>
      </trkpt>
      <trkpt lat="56.887173101092" lon="14.83487502938">
        <ele>185.4</ele>
        <time>2019-11-18T17:49:39Z</time>
      </trkpt>
      <trkpt lat="56.88723110384" lon="14.834887266954">
        <ele>184</ele>
        <time>2019-11-18T17:49:44Z</time>
      </trkpt>
      <trkpt lat="56.887266224001" lon="14.834867401851">
        <ele>183.4</ele>
        <time>2019-11-18T17:49:47Z</time>
      </trkpt>
      <trkpt lat="56.887286592018" lon="14.834860277236">
        <ele>183</ele>
        <time>2019-11-18T17:49:49Z</time>
      </trkpt>
      <trkpt lat="56.887304445465" lon="14.834859690503">
        <ele>182.4</ele>
        <time>2019-11-18T17:49:51Z</time>
      </trkpt>
      <trkpt lat="56.887307127673" lon="14.834831108224">
        <ele>181.8</ele>
        <time>2019-11-18T17:49:52Z</time>
      </trkpt>
      <trkpt lat="56.887334704124" lon="14.834800262832">
        <ele>180.8</ele>
        <time>2019-11-18T17:49:55Z</time>
      </trkpt>
      <trkpt lat="56.887366806801" lon="14.834779643358">
        <ele>179.6</ele>
        <time>2019-11-18T17:49:57Z</time>
      </trkpt>
      <trkpt lat="56.88740041822" lon="14.834726921207">
        <ele>179</ele>
        <time>2019-11-18T17:49:59Z</time>
      </trkpt>
      <trkpt lat="56.887404692989" lon="14.83465458541">
        <ele>178.4</ele>
        <time>2019-11-18T17:50:01Z</time>
      </trkpt>
      <trkpt lat="56.887399077116" lon="14.834555008438">
        <ele>177.2</ele>
        <time>2019-11-18T17:50:03Z</time>
      </trkpt>
      <trkpt lat="56.88736940519" lon="14.834456940208">
        <ele>176.2</ele>
        <time>2019-11-18T17:50:07Z</time>
      </trkpt>
      <trkpt lat="56.887345516775" lon="14.834363314385">
        <ele>175</ele>
        <time>2019-11-18T17:50:10Z</time>
      </trkpt>
      <trkpt lat="56.887265804906" lon="14.834058464682">
        <ele>174.4</ele>
        <time>2019-11-18T17:50:19Z</time>
      </trkpt>
      <trkpt lat="56.887247113269" lon="14.834008508558">
        <ele>174</ele>
        <time>2019-11-18T17:50:21Z</time>
      </trkpt>
      <trkpt lat="56.887222386664" lon="14.833937681503">
        <ele>174.8</ele>
        <time>2019-11-18T17:50:25Z</time>
      </trkpt>
      <trkpt lat="56.887207383063" lon="14.83390524355">
        <ele>175.6</ele>
        <time>2019-11-18T17:50:26Z</time>
      </trkpt>
      <trkpt lat="56.887222135207" lon="14.833827208061">
        <ele>176.8</ele>
        <time>2019-11-18T17:50:30Z</time>
      </trkpt>
      <trkpt lat="56.887217189886" lon="14.833716399343">
        <ele>177.8</ele>
        <time>2019-11-18T17:50:33Z</time>
      </trkpt>
      <trkpt lat="56.887201096638" lon="14.833700892828">
        <ele>178</ele>
        <time>2019-11-18T17:50:34Z</time>
      </trkpt>
      <trkpt lat="56.887150553781" lon="14.833651355799">
        <ele>178.4</ele>
        <time>2019-11-18T17:50:38Z</time>
      </trkpt>
      <trkpt lat="56.887094646508" lon="14.833490758595">
        <ele>177.4</ele>
        <time>2019-11-18T17:50:44Z</time>
      </trkpt>
      <trkpt lat="56.88707017136" lon="14.833449938742">
        <ele>176.8</ele>
        <time>2019-11-18T17:50:45Z</time>
      </trkpt>
      <trkpt lat="56.887026753118" lon="14.833391684537">
        <ele>175.6</ele>
        <time>2019-11-18T17:50:47Z</time>
      </trkpt>
      <trkpt lat="56.886981071763" lon="14.833321360396">
        <ele>174.8</ele>
        <time>2019-11-18T17:50:50Z</time>
      </trkpt>
      <trkpt lat="56.887010995146" lon="14.833126648859">
        <ele>175.4</ele>
        <time>2019-11-18T17:51:00Z</time>
      </trkpt>
      <trkpt lat="56.887062460012" lon="14.832943336706">
        <ele>175.2</ele>
        <time>2019-11-18T17:51:08Z</time>
      </trkpt>
      <trkpt lat="56.887096406707" lon="14.832848034503">
        <ele>175.4</ele>
        <time>2019-11-18T17:51:12Z</time>
      </trkpt>
      <trkpt lat="56.887157007844" lon="14.832783912968">
        <ele>175.8</ele>
        <time>2019-11-18T17:51:17Z</time>
      </trkpt>
      <trkpt lat="56.887328417699" lon="14.832645192523">
        <ele>176.2</ele>
        <time>2019-11-18T17:51:26Z</time>
      </trkpt>
      <trkpt lat="56.887508712368" lon="14.832538742393">
        <ele>176</ele>
        <time>2019-11-18T17:51:33Z</time>
      </trkpt>
      <trkpt lat="56.887679451671" lon="14.832365991434">
        <ele>175.2</ele>
        <time>2019-11-18T17:51:40Z</time>
      </trkpt>
      <trkpt lat="56.887836863753" lon="14.832127861655">
        <ele>175</ele>
        <time>2019-11-18T17:51:49Z</time>
      </trkpt>
      <trkpt lat="56.887873827932" lon="14.832063572482">
        <ele>174.2</ele>
        <time>2019-11-18T17:51:51Z</time>
      </trkpt>
      <trkpt lat="56.887902074935" lon="14.832002049336">
        <ele>173.8</ele>
        <time>2019-11-18T17:51:53Z</time>
      </trkpt>
      <trkpt lat="56.887973321085" lon="14.831760985892">
        <ele>173</ele>
        <time>2019-11-18T17:51:58Z</time>
      </trkpt>
      <trkpt lat="56.888005172305" lon="14.831605920742">
        <ele>171.8</ele>
        <time>2019-11-18T17:52:01Z</time>
      </trkpt>
      <trkpt lat="56.88803576624" lon="14.831408526997">
        <ele>170.6</ele>
        <time>2019-11-18T17:52:05Z</time>
      </trkpt>
      <trkpt lat="56.888056050438" lon="14.83120040442">
        <ele>169.6</ele>
        <time>2019-11-18T17:52:09Z</time>
      </trkpt>
      <trkpt lat="56.88809946868" lon="14.831033017877">
        <ele>168.4</ele>
        <time>2019-11-18T17:52:13Z</time>
      </trkpt>
      <trkpt lat="56.888123692371" lon="14.831029916574">
        <ele>167.6</ele>
        <time>2019-11-18T17:52:15Z</time>
      </trkpt>
      <trkpt lat="56.888150933546" lon="14.831046931831">
        <ele>167.8</ele>
        <time>2019-11-18T17:52:18Z</time>
      </trkpt>
      <trkpt lat="56.888177755626" lon="14.831070820246">
        <ele>168.2</ele>
        <time>2019-11-18T17:52:20Z</time>
      </trkpt>
      <trkpt lat="56.88824112279" lon="14.831100240715">
        <ele>169</ele>
        <time>2019-11-18T17:52:24Z</time>
      </trkpt>
      <trkpt lat="56.888268866879" lon="14.831115328135">
        <ele>169.4</ele>
        <time>2019-11-18T17:52:26Z</time>
      </trkpt>
      <trkpt lat="56.888290659819" lon="14.831125470234">
        <ele>169.8</ele>
        <time>2019-11-18T17:52:27Z</time>
      </trkpt>
      <trkpt lat="56.888327623998" lon="14.831135193238">
        <ele>170.8</ele>
        <time>2019-11-18T17:52:29Z</time>
      </trkpt>
      <trkpt lat="56.888367857118" lon="14.831167212096">
        <ele>171.8</ele>
        <time>2019-11-18T17:52:32Z</time>
      </trkpt>
      <trkpt lat="56.888392751361" lon="14.831200991153">
        <ele>172.4</ele>
        <time>2019-11-18T17:52:34Z</time>
      </trkpt>
      <trkpt lat="56.888434241766" lon="14.831235692219">
        <ele>173</ele>
        <time>2019-11-18T17:52:36Z</time>
      </trkpt>
      <trkpt lat="56.888520659155" lon="14.831327222567">
        <ele>174.2</ele>
        <time>2019-11-18T17:52:41Z</time>
      </trkpt>
      <trkpt lat="56.888615290806" lon="14.831431241946">
        <ele>175.2</ele>
        <time>2019-11-18T17:52:47Z</time>
      </trkpt>
      <trkpt lat="56.888800279339" lon="14.831630060614">
        <ele>176</ele>
        <time>2019-11-18T17:52:55Z</time>
      </trkpt>
      <trkpt lat="56.888824670668" lon="14.831673227399">
        <ele>176.2</ele>
        <time>2019-11-18T17:52:56Z</time>
      </trkpt>
      <trkpt lat="56.888877979552" lon="14.831752855449">
        <ele>176</ele>
        <time>2019-11-18T17:52:58Z</time>
      </trkpt>
      <trkpt lat="56.888965235131" lon="14.831933485394">
        <ele>176.6</ele>
        <time>2019-11-18T17:53:04Z</time>
      </trkpt>
      <trkpt lat="56.889039414946" lon="14.832043539741">
        <ele>177.4</ele>
        <time>2019-11-18T17:53:08Z</time>
      </trkpt>
      <trkpt lat="56.889179392676" lon="14.832251662318">
        <ele>178</ele>
        <time>2019-11-18T17:53:14Z</time>
      </trkpt>
      <trkpt lat="56.889226582773" lon="14.832325171581">
        <ele>178.4</ele>
        <time>2019-11-18T17:53:16Z</time>
      </trkpt>
      <trkpt lat="56.889340157518" lon="14.832583082644">
        <ele>179</ele>
        <time>2019-11-18T17:53:22Z</time>
      </trkpt>
      <trkpt lat="56.889382150837" lon="14.832700345425">
        <ele>179.6</ele>
        <time>2019-11-18T17:53:26Z</time>
      </trkpt>
      <trkpt lat="56.889442919612" lon="14.832943169068">
        <ele>180.6</ele>
        <time>2019-11-18T17:53:32Z</time>
      </trkpt>
      <trkpt lat="56.889503772206" lon="14.833271488091">
        <ele>181.2</ele>
        <time>2019-11-18T17:53:40Z</time>
      </trkpt>
      <trkpt lat="56.889521709472" lon="14.833606344996">
        <ele>181.2</ele>
        <time>2019-11-18T17:53:47Z</time>
      </trkpt>
      <trkpt lat="56.889525313689" lon="14.833672981101">
        <ele>181.8</ele>
        <time>2019-11-18T17:53:49Z</time>
      </trkpt>
      <trkpt lat="56.889529923734" lon="14.833774150634">
        <ele>183</ele>
        <time>2019-11-18T17:53:52Z</time>
      </trkpt>
      <trkpt lat="56.88957384489" lon="14.834032061697">
        <ele>183</ele>
        <time>2019-11-18T17:53:59Z</time>
      </trkpt>
      <trkpt lat="56.889646013049" lon="14.834050418058">
        <ele>183</ele>
        <time>2019-11-18T17:54:05Z</time>
      </trkpt>
      <trkpt lat="56.889658837356" lon="14.83402510472">
        <ele>183.4</ele>
        <time>2019-11-18T17:54:07Z</time>
      </trkpt>
      <trkpt lat="56.889679875925" lon="14.834028960394">
        <ele>184</ele>
        <time>2019-11-18T17:54:09Z</time>
      </trkpt>
      <trkpt lat="56.889752882274" lon="14.833998450278">
        <ele>185.2</ele>
        <time>2019-11-18T17:54:15Z</time>
      </trkpt>
      <trkpt lat="56.889777776517" lon="14.833972466388">
        <ele>184.8</ele>
        <time>2019-11-18T17:54:17Z</time>
      </trkpt>
      <trkpt lat="56.889817925818" lon="14.83386668681">
        <ele>184</ele>
        <time>2019-11-18T17:54:21Z</time>
      </trkpt>
      <trkpt lat="56.889934098952" lon="14.833766439286">
        <ele>185.6</ele>
        <time>2019-11-18T17:54:32Z</time>
      </trkpt>
      <trkpt lat="56.88998036704" lon="14.833765182001">
        <ele>186.6</ele>
        <time>2019-11-18T17:54:35Z</time>
      </trkpt>
      <trkpt lat="56.88999964541" lon="14.833768534761">
        <ele>186.6</ele>
        <time>2019-11-18T17:54:36Z</time>
      </trkpt>
      <trkpt lat="56.890112465784" lon="14.83370910709">
        <ele>185.6</ele>
        <time>2019-11-18T17:54:42Z</time>
      </trkpt>
      <trkpt lat="56.890153956189" lon="14.833687817064">
        <ele>184.4</ele>
        <time>2019-11-18T17:54:44Z</time>
      </trkpt>
      <trkpt lat="56.890175246215" lon="14.833693516756">
        <ele>184</ele>
        <time>2019-11-18T17:54:45Z</time>
      </trkpt>
      <trkpt lat="56.890326204234" lon="14.833842127843">
        <ele>183.8</ele>
        <time>2019-11-18T17:54:55Z</time>
      </trkpt>
      <trkpt lat="56.890360486205" lon="14.833861741489">
        <ele>184.4</ele>
        <time>2019-11-18T17:54:57Z</time>
      </trkpt>
      <trkpt lat="56.890387056828" lon="14.833893760347">
        <ele>184.8</ele>
        <time>2019-11-18T17:54:59Z</time>
      </trkpt>
      <trkpt lat="56.890413459813" lon="14.833926701214">
        <ele>185.4</ele>
        <time>2019-11-18T17:55:01Z</time>
      </trkpt>
      <trkpt lat="56.890482778126" lon="14.83399492988">
        <ele>186.6</ele>
        <time>2019-11-18T17:55:05Z</time>
      </trkpt>
      <trkpt lat="56.890678327853" lon="14.834062487994">
        <ele>187.4</ele>
        <time>2019-11-18T17:55:13Z</time>
      </trkpt>
      <trkpt lat="56.890769858201" lon="14.834075899034">
        <ele>187.8</ele>
        <time>2019-11-18T17:55:17Z</time>
      </trkpt>
      <trkpt lat="56.890828531501" lon="14.834040359778">
        <ele>189</ele>
        <time>2019-11-18T17:55:20Z</time>
      </trkpt>
      <trkpt lat="56.890883852041" lon="14.834007921825">
        <ele>189.6</ele>
        <time>2019-11-18T17:55:23Z</time>
      </trkpt>
      <trkpt lat="56.890940765142" lon="14.834011274585">
        <ele>189.4</ele>
        <time>2019-11-18T17:55:27Z</time>
      </trkpt>
      <trkpt lat="56.890970688525" lon="14.834023093064">
        <ele>189.2</ele>
        <time>2019-11-18T17:55:30Z</time>
      </trkpt>
      <trkpt lat="56.890998851709" lon="14.834073887378">
        <ele>188.6</ele>
        <time>2019-11-18T17:55:34Z</time>
      </trkpt>
      <trkpt lat="56.891123490562" lon="14.834312771528">
        <ele>189.2</ele>
        <time>2019-11-18T17:55:42Z</time>
      </trkpt>
      <trkpt lat="56.891162382578" lon="14.83433355864">
        <ele>190.2</ele>
        <time>2019-11-18T17:55:44Z</time>
      </trkpt>
      <trkpt lat="56.891208650666" lon="14.834363565842">
        <ele>191.2</ele>
        <time>2019-11-18T17:55:46Z</time>
      </trkpt>
      <trkpt lat="56.891274867676" lon="14.834409163378">
        <ele>192.4</ele>
        <time>2019-11-18T17:55:49Z</time>
      </trkpt>
      <trkpt lat="56.891413588121" lon="14.834529527462">
        <ele>193.4</ele>
        <time>2019-11-18T17:55:55Z</time>
      </trkpt>
      <trkpt lat="56.891580974664" lon="14.834658860179">
        <ele>193.2</ele>
        <time>2019-11-18T17:56:02Z</time>
      </trkpt>
      <trkpt lat="56.891748696483" lon="14.834785259231">
        <ele>192.2</ele>
        <time>2019-11-18T17:56:09Z</time>
      </trkpt>
      <trkpt lat="56.891926225125" lon="14.834957591095">
        <ele>191.6</ele>
        <time>2019-11-18T17:56:16Z</time>
      </trkpt>
      <trkpt lat="56.892112973857" lon="14.835063454492">
        <ele>191.6</ele>
        <time>2019-11-18T17:56:22Z</time>
      </trkpt>
      <trkpt lat="56.892308439765" lon="14.835163450559">
        <ele>191</ele>
        <time>2019-11-18T17:56:29Z</time>
      </trkpt>
      <trkpt lat="56.892447411667" lon="14.835152889365">
        <ele>189.8</ele>
        <time>2019-11-18T17:56:35Z</time>
      </trkpt>
      <trkpt lat="56.892496948696" lon="14.835142495809">
        <ele>188</ele>
        <time>2019-11-18T17:56:37Z</time>
      </trkpt>
      <trkpt lat="56.892523100224" lon="14.83513403009">
        <ele>187</ele>
        <time>2019-11-18T17:56:38Z</time>
      </trkpt>
      <trkpt lat="56.892600800437" lon="14.835101508318">
        <ele>185.4</ele>
        <time>2019-11-18T17:56:41Z</time>
      </trkpt>
      <trkpt lat="56.892668274732" lon="14.835081307939">
        <ele>183.8</ele>
        <time>2019-11-18T17:56:43Z</time>
      </trkpt>
      <trkpt lat="56.892723008539" lon="14.835068818908">
        <ele>182.6</ele>
        <time>2019-11-18T17:56:45Z</time>
      </trkpt>
      <trkpt lat="56.892812862507" lon="14.835034956032">
        <ele>181.4</ele>
        <time>2019-11-18T17:56:49Z</time>
      </trkpt>
      <trkpt lat="56.892923084492" lon="14.834973181429">
        <ele>180.4</ele>
        <time>2019-11-18T17:56:53Z</time>
      </trkpt>
      <trkpt lat="56.893048310078" lon="14.834835969726">
        <ele>179.4</ele>
        <time>2019-11-18T17:56:58Z</time>
      </trkpt>
      <trkpt lat="56.893194238957" lon="14.83457076641">
        <ele>179.2</ele>
        <time>2019-11-18T17:57:04Z</time>
      </trkpt>
      <trkpt lat="56.893275627206" lon="14.834235238953">
        <ele>179.6</ele>
        <time>2019-11-18T17:57:11Z</time>
      </trkpt>
      <trkpt lat="56.893359278568" lon="14.833921336798">
        <ele>179.2</ele>
        <time>2019-11-18T17:57:18Z</time>
      </trkpt>
      <trkpt lat="56.893443600482" lon="14.833715728791">
        <ele>179</ele>
        <time>2019-11-18T17:57:23Z</time>
      </trkpt>
      <trkpt lat="56.89353010169" lon="14.833478856297">
        <ele>178.2</ele>
        <time>2019-11-18T17:57:29Z</time>
      </trkpt>
      <trkpt lat="56.893610065016" lon="14.833156320785">
        <ele>178</ele>
        <time>2019-11-18T17:57:36Z</time>
      </trkpt>
      <trkpt lat="56.89366505028" lon="14.833006033318">
        <ele>177.8</ele>
        <time>2019-11-18T17:57:40Z</time>
      </trkpt>
      <trkpt lat="56.893751635307" lon="14.832856919317">
        <ele>177</ele>
        <time>2019-11-18T17:57:45Z</time>
      </trkpt>
      <trkpt lat="56.893856492876" lon="14.832689113679">
        <ele>176</ele>
        <time>2019-11-18T17:57:51Z</time>
      </trkpt>
      <trkpt lat="56.893946346844" lon="14.832480655826">
        <ele>175</ele>
        <time>2019-11-18T17:57:57Z</time>
      </trkpt>
      <trkpt lat="56.893957913866" lon="14.832429945331">
        <ele>174.6</ele>
        <time>2019-11-18T17:57:59Z</time>
      </trkpt>
      <trkpt lat="56.893937210573" lon="14.832338079707">
        <ele>175.2</ele>
        <time>2019-11-18T17:58:02Z</time>
      </trkpt>
      <trkpt lat="56.893892870322" lon="14.832263899892">
        <ele>176</ele>
        <time>2019-11-18T17:58:06Z</time>
      </trkpt>
      <trkpt lat="56.893873424314" lon="14.832267001195">
        <ele>177.2</ele>
        <time>2019-11-18T17:58:08Z</time>
      </trkpt>
      <trkpt lat="56.893866132061" lon="14.832267755566">
        <ele>177.8</ele>
        <time>2019-11-18T17:58:09Z</time>
      </trkpt>
      <trkpt lat="56.893858504532" lon="14.832257948743">
        <ele>178.4</ele>
        <time>2019-11-18T17:58:10Z</time>
      </trkpt>
      <trkpt lat="56.893852469564" lon="14.832246549359">
        <ele>178.6</ele>
        <time>2019-11-18T17:58:11Z</time>
      </trkpt>
      <trkpt lat="56.893842159827" lon="14.832203214936">
        <ele>178.8</ele>
        <time>2019-11-18T17:58:13Z</time>
      </trkpt>
      <trkpt lat="56.893824641656" lon="14.832105733439">
        <ele>179.4</ele>
        <time>2019-11-18T17:58:17Z</time>
      </trkpt>
      <trkpt lat="56.893819863973" lon="14.832053346564">
        <ele>179.8</ele>
        <time>2019-11-18T17:58:19Z</time>
      </trkpt>
      <trkpt lat="56.89379664611" lon="14.83191957144">
        <ele>180.6</ele>
        <time>2019-11-18T17:58:24Z</time>
      </trkpt>
      <trkpt lat="56.893721879562" lon="14.831637604324">
        <ele>179.8</ele>
        <time>2019-11-18T17:58:31Z</time>
      </trkpt>
      <trkpt lat="56.893660104959" lon="14.831494190015">
        <ele>179.4</ele>
        <time>2019-11-18T17:58:36Z</time>
      </trkpt>
      <trkpt lat="56.893609394464" lon="14.831367958601">
        <ele>179</ele>
        <time>2019-11-18T17:58:40Z</time>
      </trkpt>
      <trkpt lat="56.89353177807" lon="14.831283636687">
        <ele>179.4</ele>
        <time>2019-11-18T17:58:45Z</time>
      </trkpt>
      <trkpt lat="56.893429351252" lon="14.831066126382">
        <ele>179</ele>
        <time>2019-11-18T17:58:54Z</time>
      </trkpt>
      <trkpt lat="56.893413844737" lon="14.831021115579">
        <ele>178</ele>
        <time>2019-11-18T17:58:57Z</time>
      </trkpt>
      <trkpt lat="56.893399846964" lon="14.83094643285">
        <ele>177.6</ele>
        <time>2019-11-18T17:58:59Z</time>
      </trkpt>
      <trkpt lat="56.893390375417" lon="14.830859680185">
        <ele>177</ele>
        <time>2019-11-18T17:59:02Z</time>
      </trkpt>
      <trkpt lat="56.893384088992" lon="14.830810729889">
        <ele>176.4</ele>
        <time>2019-11-18T17:59:04Z</time>
      </trkpt>
      <trkpt lat="56.893369839762" lon="14.830758594471">
        <ele>176</ele>
        <time>2019-11-18T17:59:07Z</time>
      </trkpt>
      <trkpt lat="56.893336563619" lon="14.830401776988">
        <ele>176</ele>
        <time>2019-11-18T17:59:17Z</time>
      </trkpt>
      <trkpt lat="56.89333312704" lon="14.830366070094">
        <ele>175.6</ele>
        <time>2019-11-18T17:59:18Z</time>
      </trkpt>
      <trkpt lat="56.893321727656" lon="14.830232211151">
        <ele>174.4</ele>
        <time>2019-11-18T17:59:21Z</time>
      </trkpt>
      <trkpt lat="56.893288032418" lon="14.830163814847">
        <ele>174.2</ele>
        <time>2019-11-18T17:59:23Z</time>
      </trkpt>
      <trkpt lat="56.893263808727" lon="14.830141938088">
        <ele>174.4</ele>
        <time>2019-11-18T17:59:25Z</time>
      </trkpt>
      <trkpt lat="56.893218127372" lon="14.83011327199">
        <ele>174.4</ele>
        <time>2019-11-18T17:59:27Z</time>
      </trkpt>
      <trkpt lat="56.893157861511" lon="14.830057448536">
        <ele>175.6</ele>
        <time>2019-11-18T17:59:31Z</time>
      </trkpt>
      <trkpt lat="56.89312441773" lon="14.830003720557">
        <ele>176.8</ele>
        <time>2019-11-18T17:59:34Z</time>
      </trkpt>
      <trkpt lat="56.893090722492" lon="14.829948400017">
        <ele>178</ele>
        <time>2019-11-18T17:59:37Z</time>
      </trkpt>
      <trkpt lat="56.893059709462" lon="14.829932390588">
        <ele>178.8</ele>
        <time>2019-11-18T17:59:39Z</time>
      </trkpt>
      <trkpt lat="56.893042191291" lon="14.82993976666">
        <ele>179.4</ele>
        <time>2019-11-18T17:59:40Z</time>
      </trkpt>
      <trkpt lat="56.893016039763" lon="14.829930462751">
        <ele>180.4</ele>
        <time>2019-11-18T17:59:42Z</time>
      </trkpt>
      <trkpt lat="56.892954432798" lon="14.829946136904">
        <ele>181.2</ele>
        <time>2019-11-18T17:59:47Z</time>
      </trkpt>
      <trkpt lat="56.892947308183" lon="14.829950411673">
        <ele>181.8</ele>
        <time>2019-11-18T17:59:48Z</time>
      </trkpt>
      <trkpt lat="56.892927526899" lon="14.829963319799">
        <ele>182</ele>
        <time>2019-11-18T17:59:49Z</time>
      </trkpt>
      <trkpt lat="56.892889892168" lon="14.829951836596">
        <ele>183</ele>
        <time>2019-11-18T17:59:52Z</time>
      </trkpt>
      <trkpt lat="56.892872038721" lon="14.829957871564">
        <ele>183</ele>
        <time>2019-11-18T17:59:53Z</time>
      </trkpt>
      <trkpt lat="56.892806911358" lon="14.829969773862">
        <ele>183</ele>
        <time>2019-11-18T17:59:57Z</time>
      </trkpt>
      <trkpt lat="56.892746729316" lon="14.829999948702">
        <ele>182.2</ele>
        <time>2019-11-18T18:00:01Z</time>
      </trkpt>
      <trkpt lat="56.892722757082" lon="14.830014617027">
        <ele>182.2</ele>
        <time>2019-11-18T18:00:02Z</time>
      </trkpt>
      <trkpt lat="56.892660647203" lon="14.830058370545">
        <ele>183</ele>
        <time>2019-11-18T18:00:05Z</time>
      </trkpt>
      <trkpt lat="56.892602560636" lon="14.830096340552">
        <ele>184</ele>
        <time>2019-11-18T18:00:08Z</time>
      </trkpt>
      <trkpt lat="56.89252678826" lon="14.830149649436">
        <ele>185.2</ele>
        <time>2019-11-18T18:00:12Z</time>
      </trkpt>
      <trkpt lat="56.892439281224" lon="14.830242185612">
        <ele>186.2</ele>
        <time>2019-11-18T18:00:16Z</time>
      </trkpt>
      <trkpt lat="56.892388906005" lon="14.83029432103">
        <ele>186.6</ele>
        <time>2019-11-18T18:00:19Z</time>
      </trkpt>
      <trkpt lat="56.892355546043" lon="14.830346204991">
        <ele>186.8</ele>
        <time>2019-11-18T18:00:21Z</time>
      </trkpt>
      <trkpt lat="56.892336938225" lon="14.830357436737">
        <ele>187</ele>
        <time>2019-11-18T18:00:23Z</time>
      </trkpt>
      <trkpt lat="56.892311038154" lon="14.830392137803">
        <ele>187.4</ele>
        <time>2019-11-18T18:00:24Z</time>
      </trkpt>
      <trkpt lat="56.892275079803" lon="14.830433795846">
        <ele>187.6</ele>
        <time>2019-11-18T18:00:26Z</time>
      </trkpt>
      <trkpt lat="56.892199977979" lon="14.830513759172">
        <ele>188.2</ele>
        <time>2019-11-18T18:00:30Z</time>
      </trkpt>
      <trkpt lat="56.892146501457" lon="14.830565643133">
        <ele>188.4</ele>
        <time>2019-11-18T18:00:32Z</time>
      </trkpt>
      <trkpt lat="56.892108699088" lon="14.830598248724">
        <ele>188.6</ele>
        <time>2019-11-18T18:00:33Z</time>
      </trkpt>
      <trkpt lat="56.891910802429" lon="14.830474028966">
        <ele>187.2</ele>
        <time>2019-11-18T18:00:41Z</time>
      </trkpt>
      <trkpt lat="56.891821619013" lon="14.830369003759">
        <ele>186</ele>
        <time>2019-11-18T18:00:46Z</time>
      </trkpt>
      <trkpt lat="56.891732938511" lon="14.830316616884">
        <ele>185.2</ele>
        <time>2019-11-18T18:00:51Z</time>
      </trkpt>
      <trkpt lat="56.891718354005" lon="14.83032533406">
        <ele>184.8</ele>
        <time>2019-11-18T18:00:52Z</time>
      </trkpt>
      <trkpt lat="56.891702763671" lon="14.830329022096">
        <ele>184.4</ele>
        <time>2019-11-18T18:00:53Z</time>
      </trkpt>
      <trkpt lat="56.891665715673" lon="14.830342181679">
        <ele>183.6</ele>
        <time>2019-11-18T18:00:55Z</time>
      </trkpt>
      <trkpt lat="56.89160477926" lon="14.830295745953">
        <ele>182</ele>
        <time>2019-11-18T18:00:58Z</time>
      </trkpt>
      <trkpt lat="56.891552895299" lon="14.830220895586">
        <ele>181</ele>
        <time>2019-11-18T18:01:01Z</time>
      </trkpt>
      <trkpt lat="56.891530431807" lon="14.830193486773">
        <ele>180.6</ele>
        <time>2019-11-18T18:01:02Z</time>
      </trkpt>
      <trkpt lat="56.891442421857" lon="14.830051497387">
        <ele>179.4</ele>
        <time>2019-11-18T18:01:07Z</time>
      </trkpt>
      <trkpt lat="56.89145558144" lon="14.829947226551">
        <ele>178</ele>
        <time>2019-11-18T18:01:10Z</time>
      </trkpt>
      <trkpt lat="56.891488773764" lon="14.829702642709">
        <ele>176.2</ele>
        <time>2019-11-18T18:01:17Z</time>
      </trkpt>
      <trkpt lat="56.891482235882" lon="14.82966735491">
        <ele>175.2</ele>
        <time>2019-11-18T18:01:18Z</time>
      </trkpt>
      <trkpt lat="56.891476703828" lon="14.829604071565">
        <ele>174</ele>
        <time>2019-11-18T18:01:20Z</time>
      </trkpt>
      <trkpt lat="56.891473434887" lon="14.829529975569">
        <ele>172.8</ele>
        <time>2019-11-18T18:01:22Z</time>
      </trkpt>
      <trkpt lat="56.891456168173" lon="14.829444144913">
        <ele>171.2</ele>
        <time>2019-11-18T18:01:24Z</time>
      </trkpt>
      <trkpt lat="56.891402691651" lon="14.829312381445">
        <ele>170</ele>
        <time>2019-11-18T18:01:27Z</time>
      </trkpt>
      <trkpt lat="56.891346868197" lon="14.829259659294">
        <ele>169.6</ele>
        <time>2019-11-18T18:01:29Z</time>
      </trkpt>
      <trkpt lat="56.891290793286" lon="14.829226550789">
        <ele>169.2</ele>
        <time>2019-11-18T18:01:32Z</time>
      </trkpt>
      <trkpt lat="56.891242094447" lon="14.829144743445">
        <ele>168.8</ele>
        <time>2019-11-18T18:01:35Z</time>
      </trkpt>
      <trkpt lat="56.891089208591" lon="14.829061930273">
        <ele>168.4</ele>
        <time>2019-11-18T18:01:41Z</time>
      </trkpt>
      <trkpt lat="56.890972616362" lon="14.829058158418">
        <ele>168.4</ele>
        <time>2019-11-18T18:01:45Z</time>
      </trkpt>
      <trkpt lat="56.890786957277" lon="14.828986157897">
        <ele>168.4</ele>
        <time>2019-11-18T18:01:52Z</time>
      </trkpt>
      <trkpt lat="56.890587803333" lon="14.828912397177">
        <ele>168</ele>
        <time>2019-11-18T18:02:00Z</time>
      </trkpt>
      <trkpt lat="56.890520412857" lon="14.828846263986">
        <ele>168</ele>
        <time>2019-11-18T18:02:03Z</time>
      </trkpt>
      <trkpt lat="56.890486214705" lon="14.82881910663">
        <ele>168.4</ele>
        <time>2019-11-18T18:02:06Z</time>
      </trkpt>
      <trkpt lat="56.890430894165" lon="14.828811982015">
        <ele>168.8</ele>
        <time>2019-11-18T18:02:09Z</time>
      </trkpt>
      <trkpt lat="56.890408095397" lon="14.828825309236">
        <ele>168.8</ele>
        <time>2019-11-18T18:02:11Z</time>
      </trkpt>
      <trkpt lat="56.890290162064" lon="14.828913905919">
        <ele>167.8</ele>
        <time>2019-11-18T18:02:29Z</time>
      </trkpt>
      <trkpt lat="56.890303573104" lon="14.82905128526">
        <ele>168.2</ele>
        <time>2019-11-18T18:02:43Z</time>
      </trkpt>
      <trkpt lat="56.89035671435" lon="14.829299640957">
        <ele>169.8</ele>
        <time>2019-11-18T18:02:51Z</time>
      </trkpt>
      <trkpt lat="56.89036677263" lon="14.829347501606">
        <ele>170</ele>
        <time>2019-11-18T18:02:52Z</time>
      </trkpt>
      <trkpt lat="56.890397366565" lon="14.829432410253">
        <ele>171.4</ele>
        <time>2019-11-18T18:02:55Z</time>
      </trkpt>
      <trkpt lat="56.89042544593" lon="14.829507931172">
        <ele>172.4</ele>
        <time>2019-11-18T18:02:58Z</time>
      </trkpt>
      <trkpt lat="56.890506498903" lon="14.829682609968">
        <ele>173.4</ele>
        <time>2019-11-18T18:03:06Z</time>
      </trkpt>
      <trkpt lat="56.890511611862" lon="14.829692752067">
        <ele>173.4</ele>
        <time>2019-11-18T18:03:07Z</time>
      </trkpt>
      <trkpt lat="56.890524184712" lon="14.829796268532">
        <ele>173.8</ele>
        <time>2019-11-18T18:03:11Z</time>
      </trkpt>
      <trkpt lat="56.890550755335" lon="14.829852678719">
        <ele>174.2</ele>
        <time>2019-11-18T18:03:14Z</time>
      </trkpt>
      <trkpt lat="56.890582858012" lon="14.829897605703">
        <ele>174.6</ele>
        <time>2019-11-18T18:03:17Z</time>
      </trkpt>
      <trkpt lat="56.890604064219" lon="14.8299447958">
        <ele>175.2</ele>
        <time>2019-11-18T18:03:19Z</time>
      </trkpt>
      <trkpt lat="56.890629796652" lon="14.829966253464">
        <ele>175.6</ele>
        <time>2019-11-18T18:03:21Z</time>
      </trkpt>
      <trkpt lat="56.89066181551" lon="14.830004558747">
        <ele>176.8</ele>
        <time>2019-11-18T18:03:24Z</time>
      </trkpt>
      <trkpt lat="56.8906961813" lon="14.830045546238">
        <ele>177.8</ele>
        <time>2019-11-18T18:03:26Z</time>
      </trkpt>
      <trkpt lat="56.890709424702" lon="14.830065998074">
        <ele>178</ele>
        <time>2019-11-18T18:03:27Z</time>
      </trkpt>
      <trkpt lat="56.89084789369" lon="14.83022726583">
        <ele>179.2</ele>
        <time>2019-11-18T18:03:31Z</time>
      </trkpt>
      <trkpt lat="56.89101636988" lon="14.830473526052">
        <ele>180.2</ele>
        <time>2019-11-18T18:03:37Z</time>
      </trkpt>
      <trkpt lat="56.891037911363" lon="14.830523314538">
        <ele>180.4</ele>
        <time>2019-11-18T18:03:38Z</time>
      </trkpt>
      <trkpt lat="56.891163807501" lon="14.830859680185">
        <ele>181</ele>
        <time>2019-11-18T18:03:44Z</time>
      </trkpt>
      <trkpt lat="56.891249721976" lon="14.83117525872">
        <ele>181.4</ele>
        <time>2019-11-18T18:03:49Z</time>
      </trkpt>
      <trkpt lat="56.891306299801" lon="14.831506762865">
        <ele>180</ele>
        <time>2019-11-18T18:03:56Z</time>
      </trkpt>
      <trkpt lat="56.891317028633" lon="14.831552611858">
        <ele>180.2</ele>
        <time>2019-11-18T18:03:57Z</time>
      </trkpt>
      <trkpt lat="56.891357177934" lon="14.831903897287">
        <ele>180.6</ele>
        <time>2019-11-18T18:04:05Z</time>
      </trkpt>
      <trkpt lat="56.89133404389" lon="14.832283010624">
        <ele>181.2</ele>
        <time>2019-11-18T18:04:14Z</time>
      </trkpt>
      <trkpt lat="56.891318621194" lon="14.83241075078">
        <ele>181</ele>
        <time>2019-11-18T18:04:17Z</time>
      </trkpt>
      <trkpt lat="56.891310826027" lon="14.832638235546">
        <ele>180.4</ele>
        <time>2019-11-18T18:04:24Z</time>
      </trkpt>
      <trkpt lat="56.891304623421" lon="14.832689951869">
        <ele>181.6</ele>
        <time>2019-11-18T18:04:26Z</time>
      </trkpt>
      <trkpt lat="56.891294146046" lon="14.832748122255">
        <ele>182.6</ele>
        <time>2019-11-18T18:04:28Z</time>
      </trkpt>
      <trkpt lat="56.891293643132" lon="14.832865971769">
        <ele>183.8</ele>
        <time>2019-11-18T18:04:32Z</time>
      </trkpt>
      <trkpt lat="56.89128542887" lon="14.832926069992">
        <ele>184.8</ele>
        <time>2019-11-18T18:04:34Z</time>
      </trkpt>
      <trkpt lat="56.891286937612" lon="14.832945599819">
        <ele>185.2</ele>
        <time>2019-11-18T18:04:35Z</time>
      </trkpt>
      <trkpt lat="56.891286769974" lon="14.833028999724">
        <ele>186.6</ele>
        <time>2019-11-18T18:04:38Z</time>
      </trkpt>
      <trkpt lat="56.891284842137" lon="14.833106783756">
        <ele>187.8</ele>
        <time>2019-11-18T18:04:40Z</time>
      </trkpt>
      <trkpt lat="56.891278807169" lon="14.833180125381">
        <ele>188.8</ele>
        <time>2019-11-18T18:04:42Z</time>
      </trkpt>
      <trkpt lat="56.891270509088" lon="14.833223124528">
        <ele>188.8</ele>
        <time>2019-11-18T18:04:43Z</time>
      </trkpt>
      <trkpt lat="56.891269335622" lon="14.833248856961">
        <ele>189</ele>
        <time>2019-11-18T18:04:44Z</time>
      </trkpt>
      <trkpt lat="56.891301438299" lon="14.833308116994">
        <ele>189</ele>
        <time>2019-11-18T18:04:49Z</time>
      </trkpt>
      <trkpt lat="56.89136338054" lon="14.833288587167">
        <ele>187.6</ele>
        <time>2019-11-18T18:04:58Z</time>
      </trkpt>
      <trkpt lat="56.891406044411" lon="14.833235445921">
        <ele>186.4</ele>
        <time>2019-11-18T18:05:01Z</time>
      </trkpt>
      <trkpt lat="56.891416689424" lon="14.833234775369">
        <ele>186.2</ele>
        <time>2019-11-18T18:05:02Z</time>
      </trkpt>
      <trkpt lat="56.89142875936" lon="14.833193368783">
        <ele>185.4</ele>
        <time>2019-11-18T18:05:04Z</time>
      </trkpt>
      <trkpt lat="56.891438230907" lon="14.833191692403">
        <ele>185.2</ele>
        <time>2019-11-18T18:05:05Z</time>
      </trkpt>
      <trkpt lat="56.891460107666" lon="14.833196973">
        <ele>185</ele>
        <time>2019-11-18T18:05:07Z</time>
      </trkpt>
      <trkpt lat="56.89149078542" lon="14.833191524765">
        <ele>185.4</ele>
        <time>2019-11-18T18:05:10Z</time>
      </trkpt>
      <trkpt lat="56.891517272224" lon="14.833213988257">
        <ele>185.8</ele>
        <time>2019-11-18T18:05:12Z</time>
      </trkpt>
      <trkpt lat="56.891564881416" lon="14.833251203893">
        <ele>185.8</ele>
        <time>2019-11-18T18:05:15Z</time>
      </trkpt>
      <trkpt lat="56.891591200582" lon="14.83326067544">
        <ele>185.4</ele>
        <time>2019-11-18T18:05:17Z</time>
      </trkpt>
      <trkpt lat="56.891648281321" lon="14.833285485864">
        <ele>184.6</ele>
        <time>2019-11-18T18:05:22Z</time>
      </trkpt>
      <trkpt lat="56.891683317663" lon="14.833352205788">
        <ele>184.6</ele>
        <time>2019-11-18T18:05:26Z</time>
      </trkpt>
      <trkpt lat="56.89173637509" lon="14.833483717799">
        <ele>185.2</ele>
        <time>2019-11-18T18:05:30Z</time>
      </trkpt>
      <trkpt lat="56.891821619013" lon="14.833666694676">
        <ele>186.4</ele>
        <time>2019-11-18T18:05:35Z</time>
      </trkpt>
      <trkpt lat="56.891909293687" lon="14.833998450278">
        <ele>187.4</ele>
        <time>2019-11-18T18:05:45Z</time>
      </trkpt>
      <trkpt lat="56.89190988042" lon="14.834012028956">
        <ele>187.6</ele>
        <time>2019-11-18T18:05:46Z</time>
      </trkpt>
      <trkpt lat="56.89191239499" lon="14.834031558783">
        <ele>188</ele>
        <time>2019-11-18T18:05:47Z</time>
      </trkpt>
      <trkpt lat="56.89191910051" lon="14.834072630093">
        <ele>188.6</ele>
        <time>2019-11-18T18:05:49Z</time>
      </trkpt>
      <trkpt lat="56.891925303116" lon="14.83415586236">
        <ele>189.8</ele>
        <time>2019-11-18T18:05:52Z</time>
      </trkpt>
      <trkpt lat="56.891926392763" lon="14.834186204838">
        <ele>190.2</ele>
        <time>2019-11-18T18:05:53Z</time>
      </trkpt>
      <trkpt lat="56.89192245327" lon="14.834212691642">
        <ele>190.6</ele>
        <time>2019-11-18T18:05:54Z</time>
      </trkpt>
      <trkpt lat="56.89192496784" lon="14.834270107657">
        <ele>191</ele>
        <time>2019-11-18T18:05:56Z</time>
      </trkpt>
      <trkpt lat="56.891930499894" lon="14.834318303582">
        <ele>191.4</ele>
        <time>2019-11-18T18:05:58Z</time>
      </trkpt>
      <trkpt lat="56.891937289233" lon="14.834363314385">
        <ele>191.8</ele>
        <time>2019-11-18T18:06:00Z</time>
      </trkpt>
      <trkpt lat="56.891933265921" lon="14.834373624122">
        <ele>192</ele>
        <time>2019-11-18T18:06:01Z</time>
      </trkpt>
      <trkpt lat="56.891924800202" lon="14.834398434546">
        <ele>192</ele>
        <time>2019-11-18T18:06:02Z</time>
      </trkpt>
      <trkpt lat="56.891889177127" lon="14.834514775318">
        <ele>192.4</ele>
        <time>2019-11-18T18:06:06Z</time>
      </trkpt>
      <trkpt lat="56.891877442467" lon="14.834537322629">
        <ele>192.4</ele>
        <time>2019-11-18T18:06:07Z</time>
      </trkpt>
      <trkpt lat="56.89179840115" lon="14.83457914831">
        <ele>192.6</ele>
        <time>2019-11-18T18:06:11Z</time>
      </trkpt>
      <trkpt lat="56.891677869428" lon="14.834738823505">
        <ele>192.4</ele>
        <time>2019-11-18T18:06:18Z</time>
      </trkpt>
      <trkpt lat="56.891621710698" lon="14.834842423789">
        <ele>192.2</ele>
        <time>2019-11-18T18:06:20Z</time>
      </trkpt>
      <trkpt lat="56.891552057109" lon="14.835025987399">
        <ele>190.8</ele>
        <time>2019-11-18T18:06:25Z</time>
      </trkpt>
      <trkpt lat="56.891386766041" lon="14.835261854065">
        <ele>190.4</ele>
        <time>2019-11-18T18:06:33Z</time>
      </trkpt>
      <trkpt lat="56.891326081085" lon="14.83537878157">
        <ele>189.4</ele>
        <time>2019-11-18T18:06:36Z</time>
      </trkpt>
      <trkpt lat="56.89126531231" lon="14.835475760153">
        <ele>188.2</ele>
        <time>2019-11-18T18:06:39Z</time>
      </trkpt>
      <trkpt lat="56.891199262938" lon="14.835562764275">
        <ele>187.2</ele>
        <time>2019-11-18T18:06:42Z</time>
      </trkpt>
      <trkpt lat="56.891066074547" lon="14.83582972779">
        <ele>187</ele>
        <time>2019-11-18T18:06:49Z</time>
      </trkpt>
      <trkpt lat="56.891036318802" lon="14.836024858422">
        <ele>188</ele>
        <time>2019-11-18T18:06:54Z</time>
      </trkpt>
      <trkpt lat="56.890989715438" lon="14.836120747358">
        <ele>188.2</ele>
        <time>2019-11-18T18:06:57Z</time>
      </trkpt>
      <trkpt lat="56.890976472036" lon="14.836153520587">
        <ele>188</ele>
        <time>2019-11-18T18:06:58Z</time>
      </trkpt>
      <trkpt lat="56.890921235315" lon="14.836257539966">
        <ele>187</ele>
        <time>2019-11-18T18:07:01Z</time>
      </trkpt>
      <trkpt lat="56.890892653036" lon="14.836326942098">
        <ele>186.4</ele>
        <time>2019-11-18T18:07:03Z</time>
      </trkpt>
      <trkpt lat="56.890857868151" lon="14.836467338923">
        <ele>185.8</ele>
        <time>2019-11-18T18:07:06Z</time>
      </trkpt>
      <trkpt lat="56.890783939793" lon="14.836664062116">
        <ele>184.6</ele>
        <time>2019-11-18T18:07:11Z</time>
      </trkpt>
      <trkpt lat="56.890678160215" lon="14.836956674245">
        <ele>185.2</ele>
        <time>2019-11-18T18:07:19Z</time>
      </trkpt>
      <trkpt lat="56.890597191061" lon="14.8371113203">
        <ele>185</ele>
        <time>2019-11-18T18:07:24Z</time>
      </trkpt>
      <trkpt lat="56.890527369834" lon="14.837381720394">
        <ele>183.6</ele>
        <time>2019-11-18T18:07:30Z</time>
      </trkpt>
      <trkpt lat="56.890512701509" lon="14.837419103668">
        <ele>183.6</ele>
        <time>2019-11-18T18:07:31Z</time>
      </trkpt>
      <trkpt lat="56.89049417751" lon="14.83745749277">
        <ele>183.4</ele>
        <time>2019-11-18T18:07:32Z</time>
      </trkpt>
      <trkpt lat="56.890419159505" lon="14.83756478109">
        <ele>183</ele>
        <time>2019-11-18T18:07:37Z</time>
      </trkpt>
      <trkpt lat="56.890372556141" lon="14.837558243208">
        <ele>182.6</ele>
        <time>2019-11-18T18:07:40Z</time>
      </trkpt>
      <trkpt lat="56.890356546712" lon="14.83754969367">
        <ele>182.4</ele>
        <time>2019-11-18T18:07:41Z</time>
      </trkpt>
      <trkpt lat="56.890163595374" lon="14.837432011794">
        <ele>182.8</ele>
        <time>2019-11-18T18:07:49Z</time>
      </trkpt>
      <trkpt lat="56.890094444699" lon="14.837453720915">
        <ele>183</ele>
        <time>2019-11-18T18:07:51Z</time>
      </trkpt>
      <trkpt lat="56.890020348703" lon="14.837376355978">
        <ele>183.4</ele>
        <time>2019-11-18T18:07:55Z</time>
      </trkpt>
      <trkpt lat="56.890002914351" lon="14.837354646857">
        <ele>183.6</ele>
        <time>2019-11-18T18:07:56Z</time>
      </trkpt>
      <trkpt lat="56.889944241051" lon="14.837320448705">
        <ele>184.2</ele>
        <time>2019-11-18T18:07:59Z</time>
      </trkpt>
      <trkpt lat="56.88993091383" lon="14.837296141195">
        <ele>184.4</ele>
        <time>2019-11-18T18:08:00Z</time>
      </trkpt>
      <trkpt lat="56.889798982724" lon="14.837014257898">
        <ele>185</ele>
        <time>2019-11-18T18:08:10Z</time>
      </trkpt>
      <trkpt lat="56.889747936953" lon="14.836948040888">
        <ele>185.4</ele>
        <time>2019-11-18T18:08:12Z</time>
      </trkpt>
      <trkpt lat="56.889719522312" lon="14.836935635676">
        <ele>185.6</ele>
        <time>2019-11-18T18:08:13Z</time>
      </trkpt>
      <trkpt lat="56.889546771353" lon="14.836766488934">
        <ele>186.8</ele>
        <time>2019-11-18T18:08:21Z</time>
      </trkpt>
      <trkpt lat="56.889505280948" lon="14.836707647996">
        <ele>187.8</ele>
        <time>2019-11-18T18:08:24Z</time>
      </trkpt>
      <trkpt lat="56.889491199356" lon="14.836695158965">
        <ele>188</ele>
        <time>2019-11-18T18:08:25Z</time>
      </trkpt>
      <trkpt lat="56.889417019541" lon="14.836617207295">
        <ele>189.2</ele>
        <time>2019-11-18T18:08:29Z</time>
      </trkpt>
      <trkpt lat="56.889397908809" lon="14.836608741576">
        <ele>189.6</ele>
        <time>2019-11-18T18:08:30Z</time>
      </trkpt>
      <trkpt lat="56.889367398693" lon="14.83658409879">
        <ele>190.6</ele>
        <time>2019-11-18T18:08:32Z</time>
      </trkpt>
      <trkpt lat="56.889318616035" lon="14.836498938686">
        <ele>191.2</ele>
        <time>2019-11-18T18:08:35Z</time>
      </trkpt>
      <trkpt lat="56.889231192818" lon="14.836402043922">
        <ele>191.8</ele>
        <time>2019-11-18T18:08:38Z</time>
      </trkpt>
      <trkpt lat="56.889044024991" lon="14.836280338734">
        <ele>191.2</ele>
        <time>2019-11-18T18:08:46Z</time>
      </trkpt>
      <trkpt lat="56.889016616178" lon="14.836276147784">
        <ele>190.8</ele>
        <time>2019-11-18T18:08:47Z</time>
      </trkpt>
      <trkpt lat="56.888988369175" lon="14.836277907983">
        <ele>190.2</ele>
        <time>2019-11-18T18:08:48Z</time>
      </trkpt>
      <trkpt lat="56.88896028981" lon="14.836280087277">
        <ele>189.6</ele>
        <time>2019-11-18T18:08:49Z</time>
      </trkpt>
      <trkpt lat="56.888920978699" lon="14.836276818336">
        <ele>188.4</ele>
        <time>2019-11-18T18:08:51Z</time>
      </trkpt>
      <trkpt lat="56.888824335392" lon="14.836258294337">
        <ele>187.2</ele>
        <time>2019-11-18T18:08:55Z</time>
      </trkpt>
      <trkpt lat="56.888777145295" lon="14.836257623785">
        <ele>186.6</ele>
        <time>2019-11-18T18:08:57Z</time>
      </trkpt>
      <trkpt lat="56.888709587181" lon="14.836264916038">
        <ele>186</ele>
        <time>2019-11-18T18:09:00Z</time>
      </trkpt>
      <trkpt lat="56.888607328001" lon="14.836280590191">
        <ele>184.8</ele>
        <time>2019-11-18T18:09:05Z</time>
      </trkpt>
      <trkpt lat="56.888511774341" lon="14.836310765031">
        <ele>183.6</ele>
        <time>2019-11-18T18:09:10Z</time>
      </trkpt>
      <trkpt lat="56.888385542927" lon="14.836301712579">
        <ele>182.6</ele>
        <time>2019-11-18T18:09:15Z</time>
      </trkpt>
      <trkpt lat="56.888198291281" lon="14.836286457521">
        <ele>181.2</ele>
        <time>2019-11-18T18:09:21Z</time>
      </trkpt>
      <trkpt lat="56.888096451196" lon="14.836235998483">
        <ele>180.2</ele>
        <time>2019-11-18T18:09:25Z</time>
      </trkpt>
      <trkpt lat="56.887910289197" lon="14.83617422388">
        <ele>181</ele>
        <time>2019-11-18T18:09:33Z</time>
      </trkpt>
      <trkpt lat="56.887879527624" lon="14.836169027102">
        <ele>181.4</ele>
        <time>2019-11-18T18:09:34Z</time>
      </trkpt>
      <trkpt lat="56.887827308387" lon="14.836142875574">
        <ele>181.2</ele>
        <time>2019-11-18T18:09:36Z</time>
      </trkpt>
      <trkpt lat="56.887754469676" lon="14.836084956645">
        <ele>180.8</ele>
        <time>2019-11-18T18:09:39Z</time>
      </trkpt>
      <trkpt lat="56.887713314547" lon="14.836043969154">
        <ele>180.2</ele>
        <time>2019-11-18T18:09:41Z</time>
      </trkpt>
      <trkpt lat="56.887580796708" lon="14.835801648425">
        <ele>180.2</ele>
        <time>2019-11-18T18:09:48Z</time>
      </trkpt>
      <trkpt lat="56.887423636083" lon="14.835569721252">
        <ele>179.4</ele>
        <time>2019-11-18T18:09:56Z</time>
      </trkpt>
      <trkpt lat="56.887234121324" lon="14.835493781238">
        <ele>179.2</ele>
        <time>2019-11-18T18:10:03Z</time>
      </trkpt>
      <trkpt lat="56.887149883229" lon="14.835507276097">
        <ele>179</ele>
        <time>2019-11-18T18:10:07Z</time>
      </trkpt>
      <trkpt lat="56.887149967048" lon="14.835392024972">
        <ele>180.6</ele>
        <time>2019-11-18T18:10:13Z</time>
      </trkpt>
      <trkpt lat="56.887134209076" lon="14.8353092118">
        <ele>181.6</ele>
        <time>2019-11-18T18:10:16Z</time>
      </trkpt>
      <trkpt lat="56.887111075032" lon="14.835231511587">
        <ele>183</ele>
        <time>2019-11-18T18:10:19Z</time>
      </trkpt>
      <trkpt lat="56.887102190218" lon="14.835146016207">
        <ele>184.2</ele>
        <time>2019-11-18T18:10:22Z</time>
      </trkpt>
      <trkpt lat="56.887102609313" lon="14.835086588536">
        <ele>185</ele>
        <time>2019-11-18T18:10:24Z</time>
      </trkpt>
      <trkpt lat="56.887107386996" lon="14.835047947977">
        <ele>185.8</ele>
        <time>2019-11-18T18:10:25Z</time>
      </trkpt>
      <trkpt lat="56.887259015567" lon="14.835045014312">
        <ele>184.4</ele>
        <time>2019-11-18T18:10:35Z</time>
      </trkpt>
      <trkpt lat="56.887284748" lon="14.835032190005">
        <ele>183.8</ele>
        <time>2019-11-18T18:10:37Z</time>
      </trkpt>
      <trkpt lat="56.887309474605" lon="14.83499740512">
        <ele>183.4</ele>
        <time>2019-11-18T18:10:39Z</time>
      </trkpt>
      <trkpt lat="56.887355910331" lon="14.834972007963">
        <ele>182.8</ele>
        <time>2019-11-18T18:10:43Z</time>
      </trkpt>
      <trkpt lat="56.887364962783" lon="14.834965637719">
        <ele>182.2</ele>
        <time>2019-11-18T18:10:44Z</time>
      </trkpt>
      <trkpt lat="56.887383989696" lon="14.834940492019">
        <ele>181.2</ele>
        <time>2019-11-18T18:10:46Z</time>
      </trkpt>
      <trkpt lat="56.887404190075" lon="14.834885422936">
        <ele>180.2</ele>
        <time>2019-11-18T18:10:48Z</time>
      </trkpt>
      <trkpt lat="56.887417098201" lon="14.834856002467">
        <ele>179.4</ele>
        <time>2019-11-18T18:10:49Z</time>
      </trkpt>
      <trkpt lat="56.887420702418" lon="14.834812668044">
        <ele>178.8</ele>
        <time>2019-11-18T18:10:50Z</time>
      </trkpt>
      <trkpt lat="56.887420367142" lon="14.834769249802">
        <ele>178</ele>
        <time>2019-11-18T18:10:52Z</time>
      </trkpt>
      <trkpt lat="56.887415757097" lon="14.834732872356">
        <ele>177.6</ele>
        <time>2019-11-18T18:10:53Z</time>
      </trkpt>
      <trkpt lat="56.887393880338" lon="14.834612927367">
        <ele>176.4</ele>
        <time>2019-11-18T18:10:58Z</time>
      </trkpt>
      <trkpt lat="56.887381558945" lon="14.834525252693">
        <ele>175.8</ele>
        <time>2019-11-18T18:11:01Z</time>
      </trkpt>
      <trkpt lat="56.887349623906" lon="14.834462807538">
        <ele>175.4</ele>
        <time>2019-11-18T18:11:03Z</time>
      </trkpt>
      <trkpt lat="56.887249711658" lon="14.834197017489">
        <ele>174.2</ele>
        <time>2019-11-18T18:11:09Z</time>
      </trkpt>
      <trkpt lat="56.887246945631" lon="14.834092243739">
        <ele>174.4</ele>
        <time>2019-11-18T18:11:13Z</time>
      </trkpt>
      <trkpt lat="56.887239234283" lon="14.834043628719">
        <ele>175.2</ele>
        <time>2019-11-18T18:11:16Z</time>
      </trkpt>
      <trkpt lat="56.887233450772" lon="14.834021835779">
        <ele>175.4</ele>
        <time>2019-11-18T18:11:17Z</time>
      </trkpt>
      <trkpt lat="56.887221129379" lon="14.833959139167">
        <ele>176.4</ele>
        <time>2019-11-18T18:11:19Z</time>
      </trkpt>
      <trkpt lat="56.887214004764" lon="14.83392787468">
        <ele>177</ele>
        <time>2019-11-18T18:11:20Z</time>
      </trkpt>
      <trkpt lat="56.887209059443" lon="14.833901723152">
        <ele>177.4</ele>
        <time>2019-11-18T18:11:21Z</time>
      </trkpt>
      <trkpt lat="56.887194642575" lon="14.833861490032">
        <ele>178</ele>
        <time>2019-11-18T18:11:22Z</time>
      </trkpt>
      <trkpt lat="56.887114427792" lon="14.833614056344">
        <ele>177.2</ele>
        <time>2019-11-18T18:11:30Z</time>
      </trkpt>
      <trkpt lat="56.887092048119" lon="14.833561501831">
        <ele>176.2</ele>
        <time>2019-11-18T18:11:32Z</time>
      </trkpt>
      <trkpt lat="56.887035051199" lon="14.83344926819">
        <ele>175.2</ele>
        <time>2019-11-18T18:11:36Z</time>
      </trkpt>
      <trkpt lat="56.887055167759" lon="14.833217760112">
        <ele>175.4</ele>
        <time>2019-11-18T18:11:46Z</time>
      </trkpt>
      <trkpt lat="56.887068327342" lon="14.833079123486">
        <ele>175.6</ele>
        <time>2019-11-18T18:11:50Z</time>
      </trkpt>
      <trkpt lat="56.887115098344" lon="14.832962615076">
        <ele>175.4</ele>
        <time>2019-11-18T18:11:55Z</time>
      </trkpt>
      <trkpt lat="56.887132867972" lon="14.832916682264">
        <ele>175.2</ele>
        <time>2019-11-18T18:11:57Z</time>
      </trkpt>
      <trkpt lat="56.887226661433" lon="14.832833282359">
        <ele>176.2</ele>
        <time>2019-11-18T18:12:05Z</time>
      </trkpt>
      <trkpt lat="56.887414248355" lon="14.832729179161">
        <ele>175.6</ele>
        <time>2019-11-18T18:12:15Z</time>
      </trkpt>
      <trkpt lat="56.887599655983" lon="14.832557769306">
        <ele>175.6</ele>
        <time>2019-11-18T18:12:22Z</time>
      </trkpt>
      <trkpt lat="56.887783135774" lon="14.832391891505">
        <ele>175.4</ele>
        <time>2019-11-18T18:12:32Z</time>
      </trkpt>
      <trkpt lat="56.887804844895" lon="14.832358112448">
        <ele>175.4</ele>
        <time>2019-11-18T18:12:33Z</time>
      </trkpt>
      <trkpt lat="56.887834265364" lon="14.832289548506">
        <ele>175</ele>
        <time>2019-11-18T18:12:35Z</time>
      </trkpt>
      <trkpt lat="56.887948091566" lon="14.832156192477">
        <ele>173.8</ele>
        <time>2019-11-18T18:12:40Z</time>
      </trkpt>
      <trkpt lat="56.888036017697" lon="14.831878081035">
        <ele>173.2</ele>
        <time>2019-11-18T18:12:46Z</time>
      </trkpt>
      <trkpt lat="56.888078765387" lon="14.831824772151">
        <ele>173</ele>
        <time>2019-11-18T18:12:47Z</time>
      </trkpt>
      <trkpt lat="56.888112795901" lon="14.831745144101">
        <ele>172.4</ele>
        <time>2019-11-18T18:12:49Z</time>
      </trkpt>
      <trkpt lat="56.8881564656" lon="14.831587480562">
        <ele>171.2</ele>
        <time>2019-11-18T18:12:52Z</time>
      </trkpt>
      <trkpt lat="56.888152609926" lon="14.831529729271">
        <ele>170.6</ele>
        <time>2019-11-18T18:12:53Z</time>
      </trkpt>
      <trkpt lat="56.888157806704" lon="14.831448424841">
        <ele>169.8</ele>
        <time>2019-11-18T18:12:55Z</time>
      </trkpt>
      <trkpt lat="56.888190915209" lon="14.831311632233">
        <ele>168.8</ele>
        <time>2019-11-18T18:12:58Z</time>
      </trkpt>
      <trkpt lat="56.888178593816" lon="14.831202332257">
        <ele>168.4</ele>
        <time>2019-11-18T18:13:00Z</time>
      </trkpt>
      <trkpt lat="56.888191166666" lon="14.831183892077">
        <ele>167.6</ele>
        <time>2019-11-18T18:13:04Z</time>
      </trkpt>
      <trkpt lat="56.888240871333" lon="14.831297299184">
        <ele>169</ele>
        <time>2019-11-18T18:13:13Z</time>
      </trkpt>
      <trkpt lat="56.888251767803" lon="14.83131607464">
        <ele>169.4</ele>
        <time>2019-11-18T18:13:14Z</time>
      </trkpt>
      <trkpt lat="56.888270878535" lon="14.83134205853">
        <ele>170.2</ele>
        <time>2019-11-18T18:13:16Z</time>
      </trkpt>
      <trkpt lat="56.888295856597" lon="14.831369048248">
        <ele>171.2</ele>
        <time>2019-11-18T18:13:19Z</time>
      </trkpt>
      <trkpt lat="56.88830398704" lon="14.831385560591">
        <ele>171.4</ele>
        <time>2019-11-18T18:13:20Z</time>
      </trkpt>
      <trkpt lat="56.888339693934" lon="14.831435768172">
        <ele>172.4</ele>
        <time>2019-11-18T18:13:23Z</time>
      </trkpt>
      <trkpt lat="56.888375736104" lon="14.831500392621">
        <ele>173.4</ele>
        <time>2019-11-18T18:13:26Z</time>
      </trkpt>
      <trkpt lat="56.888389566239" lon="14.831517994611">
        <ele>173.8</ele>
        <time>2019-11-18T18:13:27Z</time>
      </trkpt>
      <trkpt lat="56.88845067029" lon="14.831521766466">
        <ele>174.4</ele>
        <time>2019-11-18T18:13:31Z</time>
      </trkpt>
      <trkpt lat="56.888459136009" lon="14.83153903318">
        <ele>174.6</ele>
        <time>2019-11-18T18:13:32Z</time>
      </trkpt>
      <trkpt lat="56.888480258397" lon="14.831548672365">
        <ele>174.6</ele>
        <time>2019-11-18T18:13:34Z</time>
      </trkpt>
      <trkpt lat="56.888509930323" lon="14.831547331261">
        <ele>175</ele>
        <time>2019-11-18T18:13:36Z</time>
      </trkpt>
      <trkpt lat="56.888554522031" lon="14.831604495819">
        <ele>176.2</ele>
        <time>2019-11-18T18:13:39Z</time>
      </trkpt>
      <trkpt lat="56.888569022718" lon="14.831623438913">
        <ele>176.2</ele>
        <time>2019-11-18T18:13:40Z</time>
      </trkpt>
      <trkpt lat="56.888600119567" lon="14.831644393663">
        <ele>176.6</ele>
        <time>2019-11-18T18:13:42Z</time>
      </trkpt>
      <trkpt lat="56.888641945248" lon="14.83169409833">
        <ele>176.6</ele>
        <time>2019-11-18T18:13:44Z</time>
      </trkpt>
      <trkpt lat="56.888682597463" lon="14.831753526001">
        <ele>176.6</ele>
        <time>2019-11-18T18:13:46Z</time>
      </trkpt>
      <trkpt lat="56.888719896918" lon="14.831823766323">
        <ele>176.4</ele>
        <time>2019-11-18T18:13:48Z</time>
      </trkpt>
      <trkpt lat="56.888805643755" lon="14.831981094586">
        <ele>177</ele>
        <time>2019-11-18T18:13:53Z</time>
      </trkpt>
      <trkpt lat="56.888819222433" lon="14.832016633842">
        <ele>177.2</ele>
        <time>2019-11-18T18:13:54Z</time>
      </trkpt>
      <trkpt lat="56.888910501324" lon="14.832158120314">
        <ele>178.2</ele>
        <time>2019-11-18T18:13:59Z</time>
      </trkpt>
      <trkpt lat="56.889063806275" lon="14.832381581768">
        <ele>178.8</ele>
        <time>2019-11-18T18:14:07Z</time>
      </trkpt>
      <trkpt lat="56.889080234799" lon="14.832409242038">
        <ele>179</ele>
        <time>2019-11-18T18:14:08Z</time>
      </trkpt>
      <trkpt lat="56.889120132643" lon="14.832479817636">
        <ele>179</ele>
        <time>2019-11-18T18:14:10Z</time>
      </trkpt>
      <trkpt lat="56.889188780404" lon="14.832583837015">
        <ele>179.4</ele>
        <time>2019-11-18T18:14:14Z</time>
      </trkpt>
      <trkpt lat="56.889254159224" lon="14.832765808064">
        <ele>180.4</ele>
        <time>2019-11-18T18:14:18Z</time>
      </trkpt>
      <trkpt lat="56.88931065323" lon="14.83293461953">
        <ele>181.6</ele>
        <time>2019-11-18T18:14:23Z</time>
      </trkpt>
      <trkpt lat="56.8894053687" lon="14.833273164471">
        <ele>181.4</ele>
        <time>2019-11-18T18:14:30Z</time>
      </trkpt>
      <trkpt lat="56.889466472751" lon="14.833620510407">
        <ele>182</ele>
        <time>2019-11-18T18:14:38Z</time>
      </trkpt>
      <trkpt lat="56.889500419446" lon="14.833752525332">
        <ele>183</ele>
        <time>2019-11-18T18:14:42Z</time>
      </trkpt>
      <trkpt lat="56.88951349521" lon="14.833883785886">
        <ele>184.2</ele>
        <time>2019-11-18T18:14:46Z</time>
      </trkpt>
      <trkpt lat="56.889530678105" lon="14.83397229875">
        <ele>184.4</ele>
        <time>2019-11-18T18:14:48Z</time>
      </trkpt>
      <trkpt lat="56.889561188221" lon="14.834123675864">
        <ele>184.8</ele>
        <time>2019-11-18T18:14:52Z</time>
      </trkpt>
      <trkpt lat="56.88962665086" lon="14.834180924241">
        <ele>184.4</ele>
        <time>2019-11-18T18:14:57Z</time>
      </trkpt>
      <trkpt lat="56.889659507908" lon="14.83413490761">
        <ele>185.2</ele>
        <time>2019-11-18T18:15:01Z</time>
      </trkpt>
      <trkpt lat="56.889681300848" lon="14.834139266198">
        <ele>185.6</ele>
        <time>2019-11-18T18:15:03Z</time>
      </trkpt>
      <trkpt lat="56.889693789879" lon="14.834147731917">
        <ele>185.8</ele>
        <time>2019-11-18T18:15:05Z</time>
      </trkpt>
      <trkpt lat="56.889839718758" lon="14.833922174988">
        <ele>184.4</ele>
        <time>2019-11-18T18:15:16Z</time>
      </trkpt>
      <trkpt lat="56.889873581634" lon="14.833902645161">
        <ele>184.2</ele>
        <time>2019-11-18T18:15:18Z</time>
      </trkpt>
      <trkpt lat="56.889962010679" lon="14.833849168639">
        <ele>185.4</ele>
        <time>2019-11-18T18:15:23Z</time>
      </trkpt>
      <trkpt lat="56.890003501084" lon="14.833843636585">
        <ele>186.6</ele>
        <time>2019-11-18T18:15:26Z</time>
      </trkpt>
      <trkpt lat="56.890199553725" lon="14.833809522252">
        <ele>185.6</ele>
        <time>2019-11-18T18:15:36Z</time>
      </trkpt>
      <trkpt lat="56.890221011389" lon="14.833815808677">
        <ele>185</ele>
        <time>2019-11-18T18:15:37Z</time>
      </trkpt>
      <trkpt lat="56.890290413521" lon="14.833794351013">
        <ele>184.4</ele>
        <time>2019-11-18T18:15:42Z</time>
      </trkpt>
      <trkpt lat="56.890338777084" lon="14.833804157836">
        <ele>184.4</ele>
        <time>2019-11-18T18:15:45Z</time>
      </trkpt>
      <trkpt lat="56.890437515866" lon="14.833904321541">
        <ele>185</ele>
        <time>2019-11-18T18:15:51Z</time>
      </trkpt>
      <trkpt lat="56.890458554435" lon="14.833931143621">
        <ele>185.6</ele>
        <time>2019-11-18T18:15:53Z</time>
      </trkpt>
      <trkpt lat="56.890492668768" lon="14.833972885483">
        <ele>186.2</ele>
        <time>2019-11-18T18:15:55Z</time>
      </trkpt>
      <trkpt lat="56.890574224655" lon="14.834081766364">
        <ele>187.4</ele>
        <time>2019-11-18T18:16:00Z</time>
      </trkpt>
      <trkpt lat="56.890600543821" lon="14.834102637295">
        <ele>187.6</ele>
        <time>2019-11-18T18:16:01Z</time>
      </trkpt>
      <trkpt lat="56.890627784996" lon="14.83412317295">
        <ele>187.8</ele>
        <time>2019-11-18T18:16:02Z</time>
      </trkpt>
      <trkpt lat="56.890778994472" lon="14.834121915665">
        <ele>188.4</ele>
        <time>2019-11-18T18:16:08Z</time>
      </trkpt>
      <trkpt lat="56.890889048819" lon="14.834131722488">
        <ele>189.6</ele>
        <time>2019-11-18T18:16:14Z</time>
      </trkpt>
      <trkpt lat="56.890992565284" lon="14.834080257622">
        <ele>190.2</ele>
        <time>2019-11-18T18:16:20Z</time>
      </trkpt>
      <trkpt lat="56.891026092884" lon="14.834079838527">
        <ele>190.2</ele>
        <time>2019-11-18T18:16:22Z</time>
      </trkpt>
      <trkpt lat="56.891086861659" lon="14.834097691974">
        <ele>190</ele>
        <time>2019-11-18T18:16:26Z</time>
      </trkpt>
      <trkpt lat="56.891114941024" lon="14.834133901782">
        <ele>190</ele>
        <time>2019-11-18T18:16:28Z</time>
      </trkpt>
      <trkpt lat="56.891268916527" lon="14.83438133547">
        <ele>190.2</ele>
        <time>2019-11-18T18:16:36Z</time>
      </trkpt>
      <trkpt lat="56.891318453556" lon="14.834420898038">
        <ele>190.8</ele>
        <time>2019-11-18T18:16:38Z</time>
      </trkpt>
      <trkpt lat="56.891415180682" lon="14.834473117275">
        <ele>192</ele>
        <time>2019-11-18T18:16:42Z</time>
      </trkpt>
      <trkpt lat="56.891482822615" lon="14.834521145562">
        <ele>193.2</ele>
        <time>2019-11-18T18:16:46Z</time>
      </trkpt>
      <trkpt lat="56.89157460442" lon="14.834617285955">
        <ele>194.2</ele>
        <time>2019-11-18T18:16:51Z</time>
      </trkpt>
      <trkpt lat="56.891593715152" lon="14.834636648144">
        <ele>194.2</ele>
        <time>2019-11-18T18:16:52Z</time>
      </trkpt>
      <trkpt lat="56.891755318184" lon="14.83478785762">
        <ele>193.4</ele>
        <time>2019-11-18T18:16:59Z</time>
      </trkpt>
      <trkpt lat="56.891794796933" lon="14.834830102396">
        <ele>193</ele>
        <time>2019-11-18T18:17:01Z</time>
      </trkpt>
      <trkpt lat="56.891969224272" lon="14.834990280505">
        <ele>192.2</ele>
        <time>2019-11-18T18:17:10Z</time>
      </trkpt>
      <trkpt lat="56.892155386271" lon="14.835117014833">
        <ele>192.8</ele>
        <time>2019-11-18T18:17:18Z</time>
      </trkpt>
      <trkpt lat="56.892341799727" lon="14.835186333146">
        <ele>191.8</ele>
        <time>2019-11-18T18:17:25Z</time>
      </trkpt>
      <trkpt lat="56.892422098329" lon="14.835211227389">
        <ele>190</ele>
        <time>2019-11-18T18:17:28Z</time>
      </trkpt>
      <trkpt lat="56.892468198779" lon="14.835219022556">
        <ele>189</ele>
        <time>2019-11-18T18:17:30Z</time>
      </trkpt>
      <trkpt lat="56.892521507663" lon="14.835198905996">
        <ele>188</ele>
        <time>2019-11-18T18:17:32Z</time>
      </trkpt>
      <trkpt lat="56.892585126284" lon="14.835197648711">
        <ele>186.4</ele>
        <time>2019-11-18T18:17:34Z</time>
      </trkpt>
      <trkpt lat="56.892649415457" lon="14.835192032838">
        <ele>184.8</ele>
        <time>2019-11-18T18:17:36Z</time>
      </trkpt>
      <trkpt lat="56.892702891979" lon="14.835187171336">
        <ele>183.8</ele>
        <time>2019-11-18T18:17:38Z</time>
      </trkpt>
      <trkpt lat="56.892792662128" lon="14.835179376169">
        <ele>182.6</ele>
        <time>2019-11-18T18:17:42Z</time>
      </trkpt>
      <trkpt lat="56.892861561346" lon="14.835174766124">
        <ele>181.6</ele>
        <time>2019-11-18T18:17:45Z</time>
      </trkpt>
      <trkpt lat="56.892963652888" lon="14.835117350109">
        <ele>180.4</ele>
        <time>2019-11-18T18:17:49Z</time>
      </trkpt>
      <trkpt lat="56.893078736375" lon="14.834996734568">
        <ele>179.8</ele>
        <time>2019-11-18T18:17:54Z</time>
      </trkpt>
      <trkpt lat="56.893201195934" lon="14.834731195976">
        <ele>179.4</ele>
        <time>2019-11-18T18:18:00Z</time>
      </trkpt>
      <trkpt lat="56.893303958028" lon="14.834378066529">
        <ele>179.4</ele>
        <time>2019-11-18T18:18:07Z</time>
      </trkpt>
      <trkpt lat="56.893409150873" lon="14.834076821043">
        <ele>179.2</ele>
        <time>2019-11-18T18:18:15Z</time>
      </trkpt>
      <trkpt lat="56.893510320406" lon="14.833777922489">
        <ele>178.2</ele>
        <time>2019-11-18T18:18:24Z</time>
      </trkpt>
      <trkpt lat="56.89358290766" lon="14.833502241798">
        <ele>178.4</ele>
        <time>2019-11-18T18:18:30Z</time>
      </trkpt>
      <trkpt lat="56.893658428579" lon="14.833182053218">
        <ele>178</ele>
        <time>2019-11-18T18:18:37Z</time>
      </trkpt>
      <trkpt lat="56.893804944191" lon="14.832933697521">
        <ele>177.6</ele>
        <time>2019-11-18T18:18:45Z</time>
      </trkpt>
      <trkpt lat="56.893845428768" lon="14.832880388637">
        <ele>177.2</ele>
        <time>2019-11-18T18:18:47Z</time>
      </trkpt>
      <trkpt lat="56.89392488918" lon="14.832771088661">
        <ele>175.8</ele>
        <time>2019-11-18T18:18:51Z</time>
      </trkpt>
      <trkpt lat="56.893957494771" lon="14.832720126709">
        <ele>175.6</ele>
        <time>2019-11-18T18:18:53Z</time>
      </trkpt>
      <trkpt lat="56.893994961864" lon="14.83257419783">
        <ele>175.6</ele>
        <time>2019-11-18T18:18:57Z</time>
      </trkpt>
      <trkpt lat="56.893959171151" lon="14.8324006925">
        <ele>177</ele>
        <time>2019-11-18T18:19:03Z</time>
      </trkpt>
      <trkpt lat="56.893940395695" lon="14.832381749406">
        <ele>177.8</ele>
        <time>2019-11-18T18:19:05Z</time>
      </trkpt>
      <trkpt lat="56.893933354899" lon="14.832336654784">
        <ele>178.2</ele>
        <time>2019-11-18T18:19:06Z</time>
      </trkpt>
      <trkpt lat="56.893936791478" lon="14.832297259854">
        <ele>178.8</ele>
        <time>2019-11-18T18:19:08Z</time>
      </trkpt>
      <trkpt lat="56.893940311876" lon="14.832274041991">
        <ele>179.2</ele>
        <time>2019-11-18T18:19:09Z</time>
      </trkpt>
      <trkpt lat="56.893930085958" lon="14.832193911027">
        <ele>179.6</ele>
        <time>2019-11-18T18:19:12Z</time>
      </trkpt>
      <trkpt lat="56.893901084584" lon="14.832095758978">
        <ele>180.2</ele>
        <time>2019-11-18T18:19:16Z</time>
      </trkpt>
      <trkpt lat="56.893848278614" lon="14.83188688203">
        <ele>180.8</ele>
        <time>2019-11-18T18:19:22Z</time>
      </trkpt>
      <trkpt lat="56.893812068806" lon="14.831788729981">
        <ele>180.2</ele>
        <time>2019-11-18T18:19:25Z</time>
      </trkpt>
      <trkpt lat="56.89368768141" lon="14.831534674592">
        <ele>179.4</ele>
        <time>2019-11-18T18:19:32Z</time>
      </trkpt>
      <trkpt lat="56.893668570678" lon="14.831500141164">
        <ele>179.2</ele>
        <time>2019-11-18T18:19:33Z</time>
      </trkpt>
      <trkpt lat="56.893648118842" lon="14.831470972152">
        <ele>179.2</ele>
        <time>2019-11-18T18:19:34Z</time>
      </trkpt>
      <trkpt lat="56.893615261794" lon="14.831425123159">
        <ele>179</ele>
        <time>2019-11-18T18:19:36Z</time>
      </trkpt>
      <trkpt lat="56.893527000387" lon="14.831292102406">
        <ele>180</ele>
        <time>2019-11-18T18:19:42Z</time>
      </trkpt>
      <trkpt lat="56.893465393422" lon="14.83114508388">
        <ele>179.8</ele>
        <time>2019-11-18T18:19:48Z</time>
      </trkpt>
      <trkpt lat="56.893458184988" lon="14.831119267628">
        <ele>180.6</ele>
        <time>2019-11-18T18:19:49Z</time>
      </trkpt>
      <trkpt lat="56.89345131183" lon="14.83108892515">
        <ele>179.4</ele>
        <time>2019-11-18T18:19:50Z</time>
      </trkpt>
      <trkpt lat="56.893453742581" lon="14.831010554385">
        <ele>179.6</ele>
        <time>2019-11-18T18:19:53Z</time>
      </trkpt>
      <trkpt lat="56.893458184988" lon="14.830957999872">
        <ele>179.2</ele>
        <time>2019-11-18T18:19:55Z</time>
      </trkpt>
      <trkpt lat="56.893461034834" lon="14.830895135622">
        <ele>179</ele>
        <time>2019-11-18T18:19:57Z</time>
      </trkpt>
      <trkpt lat="56.893445528319" lon="14.830832522829">
        <ele>178.8</ele>
        <time>2019-11-18T18:19:59Z</time>
      </trkpt>
      <trkpt lat="56.893412419814" lon="14.830717523161">
        <ele>179.2</ele>
        <time>2019-11-18T18:20:02Z</time>
      </trkpt>
      <trkpt lat="56.893404959923" lon="14.830642756613">
        <ele>179.2</ele>
        <time>2019-11-18T18:20:04Z</time>
      </trkpt>
      <trkpt lat="56.893400266059" lon="14.830482746142">
        <ele>178.2</ele>
        <time>2019-11-18T18:20:08Z</time>
      </trkpt>
      <trkpt lat="56.893365648812" lon="14.830360118945">
        <ele>177.4</ele>
        <time>2019-11-18T18:20:11Z</time>
      </trkpt>
      <trkpt lat="56.893335306334" lon="14.830308318803">
        <ele>177.2</ele>
        <time>2019-11-18T18:20:12Z</time>
      </trkpt>
      <trkpt lat="56.893194909509" lon="14.830184015226">
        <ele>177</ele>
        <time>2019-11-18T18:20:18Z</time>
      </trkpt>
      <trkpt lat="56.893162052461" lon="14.830136489853">
        <ele>177.8</ele>
        <time>2019-11-18T18:20:22Z</time>
      </trkpt>
      <trkpt lat="56.893137577313" lon="14.830090724679">
        <ele>178.6</ele>
        <time>2019-11-18T18:20:24Z</time>
      </trkpt>
      <trkpt lat="56.893098014745" lon="14.830050491559">
        <ele>179.8</ele>
        <time>2019-11-18T18:20:26Z</time>
      </trkpt>
      <trkpt lat="56.893002377266" lon="14.829951668958">
        <ele>181.4</ele>
        <time>2019-11-18T18:20:30Z</time>
      </trkpt>
      <trkpt lat="56.892962479422" lon="14.829952171872">
        <ele>183</ele>
        <time>2019-11-18T18:20:33Z</time>
      </trkpt>
      <trkpt lat="56.892948733106" lon="14.829934905158">
        <ele>183.2</ele>
        <time>2019-11-18T18:20:34Z</time>
      </trkpt>
      <trkpt lat="56.892899698991" lon="14.829928702552">
        <ele>184</ele>
        <time>2019-11-18T18:20:38Z</time>
      </trkpt>
      <trkpt lat="56.892885952675" lon="14.829938760832">
        <ele>184.2</ele>
        <time>2019-11-18T18:20:39Z</time>
      </trkpt>
      <trkpt lat="56.892850748695" lon="14.829931049484">
        <ele>185</ele>
        <time>2019-11-18T18:20:42Z</time>
      </trkpt>
      <trkpt lat="56.89283272761" lon="14.829948232379">
        <ele>183</ele>
        <time>2019-11-18T18:20:43Z</time>
      </trkpt>
      <trkpt lat="56.892764415125" lon="14.829952004234">
        <ele>182</ele>
        <time>2019-11-18T18:20:46Z</time>
      </trkpt>
      <trkpt lat="56.892726696575" lon="14.829945298714">
        <ele>181.2</ele>
        <time>2019-11-18T18:20:48Z</time>
      </trkpt>
      <trkpt lat="56.892563081887" lon="14.830020316719">
        <ele>182.6</ele>
        <time>2019-11-18T18:20:57Z</time>
      </trkpt>
      <trkpt lat="56.892524357509" lon="14.8300369967">
        <ele>183</ele>
        <time>2019-11-18T18:20:59Z</time>
      </trkpt>
      <trkpt lat="56.892481693638" lon="14.83005962783">
        <ele>183.8</ele>
        <time>2019-11-18T18:21:02Z</time>
      </trkpt>
      <trkpt lat="56.892473563195" lon="14.830067339178">
        <ele>184</ele>
        <time>2019-11-18T18:21:03Z</time>
      </trkpt>
      <trkpt lat="56.892466270942" lon="14.830085360263">
        <ele>184.2</ele>
        <time>2019-11-18T18:21:04Z</time>
      </trkpt>
      <trkpt lat="56.892454620101" lon="14.830116792388">
        <ele>184.6</ele>
        <time>2019-11-18T18:21:05Z</time>
      </trkpt>
      <trkpt lat="56.892421008682" lon="14.830177477344">
        <ele>185.2</ele>
        <time>2019-11-18T18:21:07Z</time>
      </trkpt>
      <trkpt lat="56.892385804702" lon="14.830228020201">
        <ele>185.8</ele>
        <time>2019-11-18T18:21:10Z</time>
      </trkpt>
      <trkpt lat="56.892355965138" lon="14.830255261376">
        <ele>186</ele>
        <time>2019-11-18T18:21:13Z</time>
      </trkpt>
      <trkpt lat="56.892341045356" lon="14.83030857026">
        <ele>186.2</ele>
        <time>2019-11-18T18:21:15Z</time>
      </trkpt>
      <trkpt lat="56.89232897542" lon="14.830320388739">
        <ele>186.4</ele>
        <time>2019-11-18T18:21:16Z</time>
      </trkpt>
      <trkpt lat="56.892311289611" lon="14.830339918566">
        <ele>186.8</ele>
        <time>2019-11-18T18:21:17Z</time>
      </trkpt>
      <trkpt lat="56.8922719785" lon="14.83036724356">
        <ele>187.6</ele>
        <time>2019-11-18T18:21:19Z</time>
      </trkpt>
      <trkpt lat="56.892074836212" lon="14.830535300655">
        <ele>188.2</ele>
        <time>2019-11-18T18:21:27Z</time>
      </trkpt>
      <trkpt lat="56.892037788214" lon="14.830521554339">
        <ele>187.8</ele>
        <time>2019-11-18T18:21:30Z</time>
      </trkpt>
      <trkpt lat="56.891937373052" lon="14.830432203285">
        <ele>186.4</ele>
        <time>2019-11-18T18:21:35Z</time>
      </trkpt>
      <trkpt lat="56.891896217923" lon="14.830402112264">
        <ele>185.2</ele>
        <time>2019-11-18T18:21:37Z</time>
      </trkpt>
      <trkpt lat="56.891817344244" lon="14.830311420106">
        <ele>184.6</ele>
        <time>2019-11-18T18:21:41Z</time>
      </trkpt>
      <trkpt lat="56.891755402003" lon="14.830288956614">
        <ele>184.2</ele>
        <time>2019-11-18T18:21:43Z</time>
      </trkpt>
      <trkpt lat="56.891679210532" lon="14.830308234984">
        <ele>182.8</ele>
        <time>2019-11-18T18:21:47Z</time>
      </trkpt>
      <trkpt lat="56.891647024036" lon="14.830289375709">
        <ele>181.4</ele>
        <time>2019-11-18T18:21:50Z</time>
      </trkpt>
      <trkpt lat="56.891629505865" lon="14.83026498438">
        <ele>180.4</ele>
        <time>2019-11-18T18:21:52Z</time>
      </trkpt>
      <trkpt lat="56.89159723555" lon="14.83024067687">
        <ele>179.6</ele>
        <time>2019-11-18T18:21:54Z</time>
      </trkpt>
      <trkpt lat="56.89158130994" lon="14.830223410156">
        <ele>179.2</ele>
        <time>2019-11-18T18:21:55Z</time>
      </trkpt>
      <trkpt lat="56.89151090198" lon="14.8301124338">
        <ele>178</ele>
        <time>2019-11-18T18:21:59Z</time>
      </trkpt>
      <trkpt lat="56.891492545619" lon="14.830019478529">
        <ele>176.8</ele>
        <time>2019-11-18T18:22:02Z</time>
      </trkpt>
      <trkpt lat="56.891499921691" lon="14.829994165191">
        <ele>176.8</ele>
        <time>2019-11-18T18:22:03Z</time>
      </trkpt>
      <trkpt lat="56.891491120696" lon="14.829914956236">
        <ele>175.8</ele>
        <time>2019-11-18T18:22:06Z</time>
      </trkpt>
      <trkpt lat="56.891497910035" lon="14.829845302647">
        <ele>174.6</ele>
        <time>2019-11-18T18:22:08Z</time>
      </trkpt>
      <trkpt lat="56.891496736569" lon="14.82978051056">
        <ele>173.4</ele>
        <time>2019-11-18T18:22:10Z</time>
      </trkpt>
      <trkpt lat="56.891498664406" lon="14.829722591631">
        <ele>173</ele>
        <time>2019-11-18T18:22:12Z</time>
      </trkpt>
      <trkpt lat="56.891507046306" lon="14.829644975237">
        <ele>172.4</ele>
        <time>2019-11-18T18:22:15Z</time>
      </trkpt>
      <trkpt lat="56.891485840099" lon="14.829552103785">
        <ele>171.8</ele>
        <time>2019-11-18T18:22:17Z</time>
      </trkpt>
      <trkpt lat="56.891475614181" lon="14.82950474605">
        <ele>171.2</ele>
        <time>2019-11-18T18:22:18Z</time>
      </trkpt>
      <trkpt lat="56.891444852608" lon="14.829450515157">
        <ele>170.4</ele>
        <time>2019-11-18T18:22:19Z</time>
      </trkpt>
      <trkpt lat="56.891417695252" lon="14.829426626742">
        <ele>169.8</ele>
        <time>2019-11-18T18:22:20Z</time>
      </trkpt>
      <trkpt lat="56.891287859621" lon="14.829303412812">
        <ele>168.6</ele>
        <time>2019-11-18T18:22:23Z</time>
      </trkpt>
      <trkpt lat="56.89119658073" lon="14.829242811675">
        <ele>168.2</ele>
        <time>2019-11-18T18:22:26Z</time>
      </trkpt>
      <trkpt lat="56.891033804232" lon="14.829080370453">
        <ele>167.4</ele>
        <time>2019-11-18T18:22:34Z</time>
      </trkpt>
      <trkpt lat="56.890811683882" lon="14.829022200067">
        <ele>167.2</ele>
        <time>2019-11-18T18:22:42Z</time>
      </trkpt>
      <trkpt lat="56.890623677865" lon="14.8289892592">
        <ele>166.6</ele>
        <time>2019-11-18T18:22:48Z</time>
      </trkpt>
      <trkpt lat="56.89058386384" lon="14.828980625843">
        <ele>166.6</ele>
        <time>2019-11-18T18:22:50Z</time>
      </trkpt>
      <trkpt lat="56.890552766991" lon="14.828986409354">
        <ele>166.6</ele>
        <time>2019-11-18T18:22:52Z</time>
      </trkpt>
      <trkpt lat="56.89049166294" lon="14.828940979456">
        <ele>167</ele>
        <time>2019-11-18T18:22:55Z</time>
      </trkpt>
      <trkpt lat="56.89036844901" lon="14.828913067729">
        <ele>166.8</ele>
        <time>2019-11-18T18:23:06Z</time>
      </trkpt>
      <trkpt lat="56.890376998548" lon="14.829082465928">
        <ele>167.2</ele>
        <time>2019-11-18T18:23:12Z</time>
      </trkpt>
      <trkpt lat="56.890387475923" lon="14.829165195281">
        <ele>168</ele>
        <time>2019-11-18T18:23:16Z</time>
      </trkpt>
      <trkpt lat="56.890399126764" lon="14.82919629213">
        <ele>168.6</ele>
        <time>2019-11-18T18:23:18Z</time>
      </trkpt>
      <trkpt lat="56.890423350455" lon="14.829267370642">
        <ele>169</ele>
        <time>2019-11-18T18:23:20Z</time>
      </trkpt>
      <trkpt lat="56.890431397079" lon="14.829298216034">
        <ele>169</ele>
        <time>2019-11-18T18:23:21Z</time>
      </trkpt>
      <trkpt lat="56.890444975757" lon="14.829329312883">
        <ele>169.6</ele>
        <time>2019-11-18T18:23:23Z</time>
      </trkpt>
      <trkpt lat="56.890453525295" lon="14.829352949841">
        <ele>170</ele>
        <time>2019-11-18T18:23:24Z</time>
      </trkpt>
      <trkpt lat="56.890501805039" lon="14.829447162397">
        <ele>171.2</ele>
        <time>2019-11-18T18:23:28Z</time>
      </trkpt>
      <trkpt lat="56.890588138609" lon="14.829596444036">
        <ele>172.2</ele>
        <time>2019-11-18T18:23:36Z</time>
      </trkpt>
      <trkpt lat="56.890588390066" lon="14.829621422098">
        <ele>172.2</ele>
        <time>2019-11-18T18:23:37Z</time>
      </trkpt>
      <trkpt lat="56.890613451947" lon="14.829737511413">
        <ele>172.2</ele>
        <time>2019-11-18T18:23:41Z</time>
      </trkpt>
      <trkpt lat="56.890765248156" lon="14.829968768034">
        <ele>173.2</ele>
        <time>2019-11-18T18:23:49Z</time>
      </trkpt>
      <trkpt lat="56.890822328895" lon="14.830046049152">
        <ele>174.8</ele>
        <time>2019-11-18T18:23:54Z</time>
      </trkpt>
      <trkpt lat="56.89085459921" lon="14.830072116861">
        <ele>175.2</ele>
        <time>2019-11-18T18:23:56Z</time>
      </trkpt>
      <trkpt lat="56.890888881181" lon="14.830120061329">
        <ele>176.2</ele>
        <time>2019-11-18T18:23:58Z</time>
      </trkpt>
      <trkpt lat="56.890970101792" lon="14.830233887531">
        <ele>177.2</ele>
        <time>2019-11-18T18:24:01Z</time>
      </trkpt>
      <trkpt lat="56.891094405369" lon="14.830454163863">
        <ele>178.2</ele>
        <time>2019-11-18T18:24:07Z</time>
      </trkpt>
      <trkpt lat="56.8911823315" lon="14.830599925104">
        <ele>179.2</ele>
        <time>2019-11-18T18:24:12Z</time>
      </trkpt>
      <trkpt lat="56.891275622047" lon="14.830962861374">
        <ele>179.6</ele>
        <time>2019-11-18T18:24:19Z</time>
      </trkpt>
      <trkpt lat="56.891324488524" lon="14.831286235076">
        <ele>179.6</ele>
        <time>2019-11-18T18:24:25Z</time>
      </trkpt>
      <trkpt lat="56.891264390301" lon="14.831621008162">
        <ele>179</ele>
        <time>2019-11-18T18:24:34Z</time>
      </trkpt>
      <trkpt lat="56.891254080564" lon="14.831792753293">
        <ele>178.8</ele>
        <time>2019-11-18T18:24:38Z</time>
      </trkpt>
      <trkpt lat="56.891268078337" lon="14.832137165564">
        <ele>179.8</ele>
        <time>2019-11-18T18:24:48Z</time>
      </trkpt>
      <trkpt lat="56.891267240147" lon="14.832498173997">
        <ele>179.4</ele>
        <time>2019-11-18T18:24:56Z</time>
      </trkpt>
      <trkpt lat="56.891271431097" lon="14.832673355707">
        <ele>180.2</ele>
        <time>2019-11-18T18:25:01Z</time>
      </trkpt>
      <trkpt lat="56.891272604563" lon="14.832703111452">
        <ele>180.8</ele>
        <time>2019-11-18T18:25:02Z</time>
      </trkpt>
      <trkpt lat="56.891269587079" lon="14.832762203847">
        <ele>181.6</ele>
        <time>2019-11-18T18:25:04Z</time>
      </trkpt>
      <trkpt lat="56.891262546283" lon="14.832781733674">
        <ele>182</ele>
        <time>2019-11-18T18:25:05Z</time>
      </trkpt>
      <trkpt lat="56.891258690609" lon="14.832855578213">
        <ele>182.6</ele>
        <time>2019-11-18T18:25:07Z</time>
      </trkpt>
      <trkpt lat="56.891252823279" lon="14.832892961487">
        <ele>183.2</ele>
        <time>2019-11-18T18:25:08Z</time>
      </trkpt>
      <trkpt lat="56.891239663696" lon="14.832947443837">
        <ele>184.4</ele>
        <time>2019-11-18T18:25:10Z</time>
      </trkpt>
      <trkpt lat="56.891246201578" lon="14.833005530404">
        <ele>185.4</ele>
        <time>2019-11-18T18:25:12Z</time>
      </trkpt>
      <trkpt lat="56.891244860474" lon="14.833035789063">
        <ele>185.8</ele>
        <time>2019-11-18T18:25:13Z</time>
      </trkpt>
      <trkpt lat="56.891237903497" lon="14.83308633192">
        <ele>186.8</ele>
        <time>2019-11-18T18:25:15Z</time>
      </trkpt>
      <trkpt lat="56.891230778882" lon="14.833130336895">
        <ele>187.4</ele>
        <time>2019-11-18T18:25:17Z</time>
      </trkpt>
      <trkpt lat="56.891237735859" lon="14.833185825073">
        <ele>187.6</ele>
        <time>2019-11-18T18:25:19Z</time>
      </trkpt>
      <trkpt lat="56.891266066681" lon="14.833232931351">
        <ele>187.8</ele>
        <time>2019-11-18T18:25:21Z</time>
      </trkpt>
      <trkpt lat="56.891282830481" lon="14.83325899906">
        <ele>188</ele>
        <time>2019-11-18T18:25:22Z</time>
      </trkpt>
      <trkpt lat="56.891319459384" lon="14.833292275203">
        <ele>187.6</ele>
        <time>2019-11-18T18:25:26Z</time>
      </trkpt>
      <trkpt lat="56.891370337517" lon="14.833265117847">
        <ele>186.8</ele>
        <time>2019-11-18T18:25:32Z</time>
      </trkpt>
      <trkpt lat="56.8914002609" lon="14.833255478662">
        <ele>185.6</ele>
        <time>2019-11-18T18:25:35Z</time>
      </trkpt>
      <trkpt lat="56.891437644174" lon="14.833214658809">
        <ele>184.4</ele>
        <time>2019-11-18T18:25:39Z</time>
      </trkpt>
      <trkpt lat="56.891534790395" lon="14.833209210574">
        <ele>184.8</ele>
        <time>2019-11-18T18:25:45Z</time>
      </trkpt>
      <trkpt lat="56.89160226469" lon="14.833238547224">
        <ele>185</ele>
        <time>2019-11-18T18:25:49Z</time>
      </trkpt>
      <trkpt lat="56.891662865827" lon="14.833228740401">
        <ele>185</ele>
        <time>2019-11-18T18:25:52Z</time>
      </trkpt>
      <trkpt lat="56.891711397028" lon="14.833254221377">
        <ele>184.8</ele>
        <time>2019-11-18T18:25:54Z</time>
      </trkpt>
      <trkpt lat="56.891778703685" lon="14.833250784798">
        <ele>185</ele>
        <time>2019-11-18T18:25:57Z</time>
      </trkpt>
      <trkpt lat="56.891819607357" lon="14.833312475582">
        <ele>184.6</ele>
        <time>2019-11-18T18:26:00Z</time>
      </trkpt>
      <trkpt lat="56.891911137705" lon="14.83362864085">
        <ele>184.8</ele>
        <time>2019-11-18T18:26:09Z</time>
      </trkpt>
      <trkpt lat="56.891918849053" lon="14.83369569605">
        <ele>185.6</ele>
        <time>2019-11-18T18:26:11Z</time>
      </trkpt>
      <trkpt lat="56.891952544291" lon="14.833896945469">
        <ele>186.4</ele>
        <time>2019-11-18T18:26:17Z</time>
      </trkpt>
      <trkpt lat="56.891948688617" lon="14.833939274064">
        <ele>186.8</ele>
        <time>2019-11-18T18:26:19Z</time>
      </trkpt>
      <trkpt lat="56.89194089345" lon="14.833979674822">
        <ele>187.6</ele>
        <time>2019-11-18T18:26:21Z</time>
      </trkpt>
      <trkpt lat="56.891941815459" lon="14.834026362005">
        <ele>188.2</ele>
        <time>2019-11-18T18:26:23Z</time>
      </trkpt>
      <trkpt lat="56.891939636165" lon="14.834102553476">
        <ele>189.4</ele>
        <time>2019-11-18T18:26:26Z</time>
      </trkpt>
      <trkpt lat="56.891936534862" lon="14.834203387733">
        <ele>190.6</ele>
        <time>2019-11-18T18:26:29Z</time>
      </trkpt>
      <trkpt lat="56.891934271749" lon="14.83427656172">
        <ele>191.4</ele>
        <time>2019-11-18T18:26:32Z</time>
      </trkpt>
      <trkpt lat="56.891914825741" lon="14.834343114006">
        <ele>191.6</ele>
        <time>2019-11-18T18:26:35Z</time>
      </trkpt>
      <trkpt lat="56.891860008115" lon="14.834415198346">
        <ele>191.8</ele>
        <time>2019-11-18T18:26:39Z</time>
      </trkpt>
      <trkpt lat="56.89184031065" lon="14.834450653783">
        <ele>192</ele>
        <time>2019-11-18T18:26:41Z</time>
      </trkpt>
      <trkpt lat="56.891741823325" lon="14.834563138881">
        <ele>192.6</ele>
        <time>2019-11-18T18:26:47Z</time>
      </trkpt>
      <trkpt lat="56.891726149172" lon="14.83457831012">
        <ele>192.8</ele>
        <time>2019-11-18T18:26:48Z</time>
      </trkpt>
      <trkpt lat="56.891613412617" lon="14.834755000572">
        <ele>191.6</ele>
        <time>2019-11-18T18:26:54Z</time>
      </trkpt>
      <trkpt lat="56.891539568078" lon="14.834860444874">
        <ele>190.6</ele>
        <time>2019-11-18T18:26:59Z</time>
      </trkpt>
      <trkpt lat="56.891402440194" lon="14.835111566598">
        <ele>190</ele>
        <time>2019-11-18T18:27:07Z</time>
      </trkpt>
      <trkpt lat="56.891365811291" lon="14.835185411137">
        <ele>189.6</ele>
        <time>2019-11-18T18:27:09Z</time>
      </trkpt>
      <trkpt lat="56.891308646733" lon="14.83527903696">
        <ele>188.4</ele>
        <time>2019-11-18T18:27:12Z</time>
      </trkpt>
      <trkpt lat="56.891221474973" lon="14.835431503721">
        <ele>187.4</ele>
        <time>2019-11-18T18:27:16Z</time>
      </trkpt>
      <trkpt lat="56.891148636262" lon="14.83556737432">
        <ele>187</ele>
        <time>2019-11-18T18:27:20Z</time>
      </trkpt>
      <trkpt lat="56.891080491415" lon="14.835858980621">
        <ele>188.6</ele>
        <time>2019-11-18T18:27:26Z</time>
      </trkpt>
      <trkpt lat="56.890965743204" lon="14.836151508931">
        <ele>187.4</ele>
        <time>2019-11-18T18:27:34Z</time>
      </trkpt>
      <trkpt lat="56.890903800963" lon="14.836269023169">
        <ele>186.2</ele>
        <time>2019-11-18T18:27:38Z</time>
      </trkpt>
      <trkpt lat="56.890876308331" lon="14.836339598767">
        <ele>185</ele>
        <time>2019-11-18T18:27:40Z</time>
      </trkpt>
      <trkpt lat="56.890740102456" lon="14.836641514805">
        <ele>184.4</ele>
        <time>2019-11-18T18:27:49Z</time>
      </trkpt>
      <trkpt lat="56.890716214041" lon="14.836764980192">
        <ele>184.6</ele>
        <time>2019-11-18T18:27:52Z</time>
      </trkpt>
      <trkpt lat="56.890637172724" lon="14.836971426389">
        <ele>184.6</ele>
        <time>2019-11-18T18:27:58Z</time>
      </trkpt>
      <trkpt lat="56.890603728943" lon="14.837026327834">
        <ele>184.2</ele>
        <time>2019-11-18T18:28:00Z</time>
      </trkpt>
      <trkpt lat="56.890587300419" lon="14.837108051359">
        <ele>184</ele>
        <time>2019-11-18T18:28:02Z</time>
      </trkpt>
      <trkpt lat="56.89057129099" lon="14.83716580265">
        <ele>183.8</ele>
        <time>2019-11-18T18:28:04Z</time>
      </trkpt>
      <trkpt lat="56.890527369834" lon="14.837288848942">
        <ele>183.2</ele>
        <time>2019-11-18T18:28:08Z</time>
      </trkpt>
      <trkpt lat="56.89050926493" lon="14.837313994642">
        <ele>182.8</ele>
        <time>2019-11-18T18:28:09Z</time>
      </trkpt>
      <trkpt lat="56.890486969076" lon="14.837354982133">
        <ele>182.4</ele>
        <time>2019-11-18T18:28:11Z</time>
      </trkpt>
      <trkpt lat="56.890472552208" lon="14.837366465336">
        <ele>182.8</ele>
        <time>2019-11-18T18:28:13Z</time>
      </trkpt>
      <trkpt lat="56.890266022192" lon="14.837325645483">
        <ele>182.6</ele>
        <time>2019-11-18T18:28:20Z</time>
      </trkpt>
      <trkpt lat="56.890069969551" lon="14.837376858892">
        <ele>182.8</ele>
        <time>2019-11-18T18:28:26Z</time>
      </trkpt>
      <trkpt lat="56.890043818023" lon="14.837374092865">
        <ele>183</ele>
        <time>2019-11-18T18:28:28Z</time>
      </trkpt>
      <trkpt lat="56.889991431148" lon="14.837328327691">
        <ele>184</ele>
        <time>2019-11-18T18:28:31Z</time>
      </trkpt>
      <trkpt lat="56.889947426173" lon="14.837289435675">
        <ele>184.8</ele>
        <time>2019-11-18T18:28:33Z</time>
      </trkpt>
      <trkpt lat="56.889767215323" lon="14.837021382513">
        <ele>184.4</ele>
        <time>2019-11-18T18:28:43Z</time>
      </trkpt>
      <trkpt lat="56.889744165098" lon="14.836993303148">
        <ele>184.4</ele>
        <time>2019-11-18T18:28:44Z</time>
      </trkpt>
      <trkpt lat="56.889650706913" lon="14.836892301253">
        <ele>185</ele>
        <time>2019-11-18T18:28:48Z</time>
      </trkpt>
      <trkpt lat="56.889564373343" lon="14.836789120064">
        <ele>186.2</ele>
        <time>2019-11-18T18:28:53Z</time>
      </trkpt>
      <trkpt lat="56.889513746667" lon="14.836724411796">
        <ele>187.4</ele>
        <time>2019-11-18T18:28:56Z</time>
      </trkpt>
      <trkpt lat="56.889418612102" lon="14.836626343566">
        <ele>188.4</ele>
        <time>2019-11-18T18:29:01Z</time>
      </trkpt>
      <trkpt lat="56.889333703455" lon="14.836518217056">
        <ele>189.6</ele>
        <time>2019-11-18T18:29:06Z</time>
      </trkpt>
      <trkpt lat="56.889320543872" lon="14.836478570669">
        <ele>190</ele>
        <time>2019-11-18T18:29:08Z</time>
      </trkpt>
      <trkpt lat="56.889232785379" lon="14.836395254583">
        <ele>190</ele>
        <time>2019-11-18T18:29:11Z</time>
      </trkpt>
      <trkpt lat="56.889053999452" lon="14.836271118644">
        <ele>188.2</ele>
        <time>2019-11-18T18:29:20Z</time>
      </trkpt>
      <trkpt lat="56.888973952307" lon="14.8362647484">
        <ele>187</ele>
        <time>2019-11-18T18:29:23Z</time>
      </trkpt>
      <trkpt lat="56.888848559083" lon="14.836215798104">
        <ele>186</ele>
        <time>2019-11-18T18:29:28Z</time>
      </trkpt>
      <trkpt lat="56.888726853895" lon="14.836234489741">
        <ele>185</ele>
        <time>2019-11-18T18:29:33Z</time>
      </trkpt>
      <trkpt lat="56.888593330228" lon="14.836275980146">
        <ele>184</ele>
        <time>2019-11-18T18:29:38Z</time>
      </trkpt>
      <trkpt lat="56.888472630868" lon="14.836291151385">
        <ele>182.6</ele>
        <time>2019-11-18T18:29:43Z</time>
      </trkpt>
      <trkpt lat="56.888409096066" lon="14.836310429755">
        <ele>181.6</ele>
        <time>2019-11-18T18:29:45Z</time>
      </trkpt>
      <trkpt lat="56.88830231066" lon="14.836317051456">
        <ele>180.4</ele>
        <time>2019-11-18T18:29:49Z</time>
      </trkpt>
      <trkpt lat="56.888169625183" lon="14.836278327078">
        <ele>179.2</ele>
        <time>2019-11-18T18:29:54Z</time>
      </trkpt>
      <trkpt lat="56.888083207794" lon="14.836215379009">
        <ele>178.2</ele>
        <time>2019-11-18T18:29:58Z</time>
      </trkpt>
      <trkpt lat="56.8879050086" lon="14.836120998815">
        <ele>179.4</ele>
        <time>2019-11-18T18:30:04Z</time>
      </trkpt>
      <trkpt lat="56.887724378655" lon="14.836001640559">
        <ele>178.6</ele>
        <time>2019-11-18T18:30:11Z</time>
      </trkpt>
      <trkpt lat="56.887686911562" lon="14.835967610045">
        <ele>178.2</ele>
        <time>2019-11-18T18:30:13Z</time>
      </trkpt>
      <trkpt lat="56.887666208269" lon="14.835951097702">
        <ele>178.4</ele>
        <time>2019-11-18T18:30:14Z</time>
      </trkpt>
      <trkpt lat="56.887626478063" lon="14.835906338356">
        <ele>178.4</ele>
        <time>2019-11-18T18:30:16Z</time>
      </trkpt>
      <trkpt lat="56.887483315211" lon="14.835645661266">
        <ele>178.2</ele>
        <time>2019-11-18T18:30:24Z</time>
      </trkpt>
      <trkpt lat="56.887313917012" lon="14.835476598343">
        <ele>177.6</ele>
        <time>2019-11-18T18:30:29Z</time>
      </trkpt>
      <trkpt lat="56.887237138808" lon="14.835426055486">
        <ele>177.2</ele>
        <time>2019-11-18T18:30:32Z</time>
      </trkpt>
      <trkpt lat="56.887142842433" lon="14.835413650274">
        <ele>177.6</ele>
        <time>2019-11-18T18:30:37Z</time>
      </trkpt>
      <trkpt lat="56.887129515212" lon="14.835386995832">
        <ele>177.8</ele>
        <time>2019-11-18T18:30:39Z</time>
      </trkpt>
      <trkpt lat="56.887120546579" lon="14.835318767166">
        <ele>178.4</ele>
        <time>2019-11-18T18:30:43Z</time>
      </trkpt>
      <trkpt lat="56.887089198273" lon="14.835258668943">
        <ele>179.4</ele>
        <time>2019-11-18T18:30:46Z</time>
      </trkpt>
      <trkpt lat="56.887071512464" lon="14.835206030611">
        <ele>180.4</ele>
        <time>2019-11-18T18:30:48Z</time>
      </trkpt>
      <trkpt lat="56.887064974582" lon="14.835184070033">
        <ele>180.8</ele>
        <time>2019-11-18T18:30:49Z</time>
      </trkpt>
      <trkpt lat="56.887049300429" lon="14.835110476951">
        <ele>182</ele>
        <time>2019-11-18T18:30:52Z</time>
      </trkpt>
      <trkpt lat="56.887043097823" lon="14.835061610474">
        <ele>183</ele>
        <time>2019-11-18T18:30:54Z</time>
      </trkpt>
      <trkpt lat="56.887062040917" lon="14.835031938548">
        <ele>184.2</ele>
        <time>2019-11-18T18:30:56Z</time>
      </trkpt>
      <trkpt lat="56.887104872426" lon="14.835027160865">
        <ele>184.4</ele>
        <time>2019-11-18T18:30:59Z</time>
      </trkpt>
      <trkpt lat="56.887192966195" lon="14.835049959633">
        <ele>183</ele>
        <time>2019-11-18T18:31:04Z</time>
      </trkpt>
      <trkpt lat="56.887279635041" lon="14.835006038477">
        <ele>181.6</ele>
        <time>2019-11-18T18:31:09Z</time>
      </trkpt>
      <trkpt lat="56.887337805427" lon="14.835010061789">
        <ele>180.4</ele>
        <time>2019-11-18T18:31:12Z</time>
      </trkpt>
      <trkpt lat="56.887375859253" lon="14.83499489055">
        <ele>180</ele>
        <time>2019-11-18T18:31:14Z</time>
      </trkpt>
      <trkpt lat="56.887455571122" lon="14.834903695478">
        <ele>178.6</ele>
        <time>2019-11-18T18:31:19Z</time>
      </trkpt>
      <trkpt lat="56.887466383773" lon="14.834865222557">
        <ele>177.4</ele>
        <time>2019-11-18T18:31:20Z</time>
      </trkpt>
      <trkpt lat="56.887476358234" lon="14.83478701943">
        <ele>176.4</ele>
        <time>2019-11-18T18:31:22Z</time>
      </trkpt>
      <trkpt lat="56.887471245275" lon="14.834696411091">
        <ele>175.4</ele>
        <time>2019-11-18T18:31:25Z</time>
      </trkpt>
      <trkpt lat="56.88746579704" lon="14.834661039473">
        <ele>175.2</ele>
        <time>2019-11-18T18:31:26Z</time>
      </trkpt>
      <trkpt lat="56.887436628028" lon="14.834519301544">
        <ele>174</ele>
        <time>2019-11-18T18:31:30Z</time>
      </trkpt>
      <trkpt lat="56.887388935017" lon="14.834424250798">
        <ele>173.6</ele>
        <time>2019-11-18T18:31:33Z</time>
      </trkpt>
      <trkpt lat="56.887328836794" lon="14.834265749069">
        <ele>173.2</ele>
        <time>2019-11-18T18:31:39Z</time>
      </trkpt>
      <trkpt lat="56.887294722461" lon="14.834168854305">
        <ele>173.4</ele>
        <time>2019-11-18T18:31:43Z</time>
      </trkpt>
      <trkpt lat="56.887269325304" lon="14.834125100787">
        <ele>173.8</ele>
        <time>2019-11-18T18:31:45Z</time>
      </trkpt>
      <trkpt lat="56.88724870583" lon="14.834078916518">
        <ele>175</ele>
        <time>2019-11-18T18:31:47Z</time>
      </trkpt>
      <trkpt lat="56.887237641722" lon="14.834038767217">
        <ele>175.2</ele>
        <time>2019-11-18T18:31:48Z</time>
      </trkpt>
      <trkpt lat="56.887217525162" lon="14.833966263782">
        <ele>176.2</ele>
        <time>2019-11-18T18:31:50Z</time>
      </trkpt>
      <trkpt lat="56.887204952312" lon="14.833939022607">
        <ele>176.4</ele>
        <time>2019-11-18T18:31:51Z</time>
      </trkpt>
      <trkpt lat="56.887174777472" lon="14.833858053453">
        <ele>177.2</ele>
        <time>2019-11-18T18:31:54Z</time>
      </trkpt>
      <trkpt lat="56.887178716965" lon="14.833774905005">
        <ele>176.6</ele>
        <time>2019-11-18T18:31:57Z</time>
      </trkpt>
      <trkpt lat="56.887174023101" lon="14.833749591667">
        <ele>178.4</ele>
        <time>2019-11-18T18:31:58Z</time>
      </trkpt>
      <trkpt lat="56.887110320661" lon="14.83365211017">
        <ele>176.8</ele>
        <time>2019-11-18T18:32:01Z</time>
      </trkpt>
      <trkpt lat="56.887041840538" lon="14.833546414411">
        <ele>177.4</ele>
        <time>2019-11-18T18:32:05Z</time>
      </trkpt>
      <trkpt lat="56.887038739235" lon="14.833495703916">
        <ele>177.4</ele>
        <time>2019-11-18T18:32:07Z</time>
      </trkpt>
      <trkpt lat="56.887046031488" lon="14.833422362291">
        <ele>177.6</ele>
        <time>2019-11-18T18:32:10Z</time>
      </trkpt>
      <trkpt lat="56.887035218837" lon="14.833349691218">
        <ele>177.8</ele>
        <time>2019-11-18T18:32:12Z</time>
      </trkpt>
      <trkpt lat="56.887034045371" lon="14.833316582713">
        <ele>178</ele>
        <time>2019-11-18T18:32:13Z</time>
      </trkpt>
      <trkpt lat="56.887017113933" lon="14.833066299179">
        <ele>178.6</ele>
        <time>2019-11-18T18:32:20Z</time>
      </trkpt>
      <trkpt lat="56.887103866598" lon="14.832933446064">
        <ele>178</ele>
        <time>2019-11-18T18:32:27Z</time>
      </trkpt>
      <trkpt lat="56.887160192966" lon="14.832874772764">
        <ele>178</ele>
        <time>2019-11-18T18:32:30Z</time>
      </trkpt>
      <trkpt lat="56.887353982494" lon="14.832769077005">
        <ele>178.4</ele>
        <time>2019-11-18T18:32:41Z</time>
      </trkpt>
      <trkpt lat="56.88752530853" lon="14.832624153954">
        <ele>178.4</ele>
        <time>2019-11-18T18:32:49Z</time>
      </trkpt>
      <trkpt lat="56.887598314879" lon="14.832547711026">
        <ele>178</ele>
        <time>2019-11-18T18:32:52Z</time>
      </trkpt>
      <trkpt lat="56.88778011829" lon="14.832417288662">
        <ele>177.8</ele>
        <time>2019-11-18T18:33:00Z</time>
      </trkpt>
      <trkpt lat="56.887893441578" lon="14.832304803564">
        <ele>176.8</ele>
        <time>2019-11-18T18:33:06Z</time>
      </trkpt>
      <trkpt lat="56.887952031059" lon="14.832248058101">
        <ele>176</ele>
        <time>2019-11-18T18:33:09Z</time>
      </trkpt>
      <trkpt lat="56.888098462852" lon="14.831978915292">
        <ele>175.6</ele>
        <time>2019-11-18T18:33:14Z</time>
      </trkpt>
      <trkpt lat="56.888168284079" lon="14.831710610673">
        <ele>174.2</ele>
        <time>2019-11-18T18:33:19Z</time>
      </trkpt>
      <trkpt lat="56.888197117815" lon="14.831599801955">
        <ele>173.2</ele>
        <time>2019-11-18T18:33:21Z</time>
      </trkpt>
      <trkpt lat="56.888231148329" lon="14.831336610295">
        <ele>172.2</ele>
        <time>2019-11-18T18:33:26Z</time>
      </trkpt>
      <trkpt lat="56.888227460293" lon="14.831231836545">
        <ele>171.2</ele>
        <time>2019-11-18T18:33:29Z</time>
      </trkpt>
      <trkpt lat="56.888237267116" lon="14.831226975043">
        <ele>170.8</ele>
        <time>2019-11-18T18:33:30Z</time>
      </trkpt>
      <trkpt lat="56.888265765576" lon="14.83124734306">
        <ele>170.2</ele>
        <time>2019-11-18T18:33:33Z</time>
      </trkpt>
      <trkpt lat="56.888275320942" lon="14.831243822662">
        <ele>170.4</ele>
        <time>2019-11-18T18:33:36Z</time>
      </trkpt>
      <trkpt lat="56.888339107201" lon="14.83127667971">
        <ele>171</ele>
        <time>2019-11-18T18:33:40Z</time>
      </trkpt>
      <trkpt lat="56.888368611489" lon="14.831290509845">
        <ele>171.6</ele>
        <time>2019-11-18T18:33:42Z</time>
      </trkpt>
      <trkpt lat="56.888380681425" lon="14.831298305012">
        <ele>171.8</ele>
        <time>2019-11-18T18:33:43Z</time>
      </trkpt>
      <trkpt lat="56.888413873749" lon="14.831309704396">
        <ele>172.4</ele>
        <time>2019-11-18T18:33:45Z</time>
      </trkpt>
      <trkpt lat="56.88842636278" lon="14.831311716052">
        <ele>173</ele>
        <time>2019-11-18T18:33:46Z</time>
      </trkpt>
      <trkpt lat="56.8884665959" lon="14.83133954396">
        <ele>174</ele>
        <time>2019-11-18T18:33:49Z</time>
      </trkpt>
      <trkpt lat="56.888507583391" lon="14.831349518421">
        <ele>174.6</ele>
        <time>2019-11-18T18:33:51Z</time>
      </trkpt>
      <trkpt lat="56.888547145959" lon="14.831390757369">
        <ele>175</ele>
        <time>2019-11-18T18:33:54Z</time>
      </trkpt>
      <trkpt lat="56.888568184528" lon="14.831414394327">
        <ele>175.8</ele>
        <time>2019-11-18T18:33:56Z</time>
      </trkpt>
      <trkpt lat="56.888580170645" lon="14.831433002145">
        <ele>176.2</ele>
        <time>2019-11-18T18:33:57Z</time>
      </trkpt>
      <trkpt lat="56.88862166105" lon="14.831503913019">
        <ele>176.6</ele>
        <time>2019-11-18T18:33:59Z</time>
      </trkpt>
      <trkpt lat="56.888695505589" lon="14.831604412">
        <ele>177.2</ele>
        <time>2019-11-18T18:34:03Z</time>
      </trkpt>
      <trkpt lat="56.888753759794" lon="14.831713795795">
        <ele>178.4</ele>
        <time>2019-11-18T18:34:07Z</time>
      </trkpt>
      <trkpt lat="56.888788209403" lon="14.831767942869">
        <ele>178.4</ele>
        <time>2019-11-18T18:34:10Z</time>
      </trkpt>
      <trkpt lat="56.888863227408" lon="14.831904400201">
        <ele>178</ele>
        <time>2019-11-18T18:34:15Z</time>
      </trkpt>
      <trkpt lat="56.889018544015" lon="14.832140602143">
        <ele>179</ele>
        <time>2019-11-18T18:34:23Z</time>
      </trkpt>
      <trkpt lat="56.889073194003" lon="14.832210591008">
        <ele>179.6</ele>
        <time>2019-11-18T18:34:26Z</time>
      </trkpt>
      <trkpt lat="56.889094986943" lon="14.832262474969">
        <ele>179.6</ele>
        <time>2019-11-18T18:34:27Z</time>
      </trkpt>
      <trkpt lat="56.889215351027" lon="14.832432962815">
        <ele>180.6</ele>
        <time>2019-11-18T18:34:33Z</time>
      </trkpt>
      <trkpt lat="56.889299002389" lon="14.832591632182">
        <ele>181</ele>
        <time>2019-11-18T18:34:38Z</time>
      </trkpt>
      <trkpt lat="56.889416935722" lon="14.832850297616">
        <ele>181.8</ele>
        <time>2019-11-18T18:34:45Z</time>
      </trkpt>
      <trkpt lat="56.889450044227" lon="14.832956496289">
        <ele>182.8</ele>
        <time>2019-11-18T18:34:48Z</time>
      </trkpt>
      <trkpt lat="56.889535958702" lon="14.833244833649">
        <ele>183.2</ele>
        <time>2019-11-18T18:34:55Z</time>
      </trkpt>
      <trkpt lat="56.889558086918" lon="14.833536356131">
        <ele>184</ele>
        <time>2019-11-18T18:35:02Z</time>
      </trkpt>
      <trkpt lat="56.889560350031" lon="14.83368815234">
        <ele>184.2</ele>
        <time>2019-11-18T18:35:05Z</time>
      </trkpt>
      <trkpt lat="56.88955791928" lon="14.833843301309">
        <ele>184.6</ele>
        <time>2019-11-18T18:35:10Z</time>
      </trkpt>
      <trkpt lat="56.889556410538" lon="14.833871045398">
        <ele>185</ele>
        <time>2019-11-18T18:35:11Z</time>
      </trkpt>
      <trkpt lat="56.889573341976" lon="14.834001132486">
        <ele>186.2</ele>
        <time>2019-11-18T18:35:15Z</time>
      </trkpt>
      <trkpt lat="56.889593290898" lon="14.834124514054">
        <ele>186</ele>
        <time>2019-11-18T18:35:18Z</time>
      </trkpt>
      <trkpt lat="56.889652718569" lon="14.834209590339">
        <ele>185.6</ele>
        <time>2019-11-18T18:35:26Z</time>
      </trkpt>
      <trkpt lat="56.889715163724" lon="14.83416340607">
        <ele>186.6</ele>
        <time>2019-11-18T18:35:35Z</time>
      </trkpt>
      <trkpt lat="56.889806945529" lon="14.834182516802">
        <ele>187</ele>
        <time>2019-11-18T18:35:40Z</time>
      </trkpt>
      <trkpt lat="56.889904510845" lon="14.834004401427">
        <ele>186</ele>
        <time>2019-11-18T18:35:46Z</time>
      </trkpt>
      <trkpt lat="56.890002327618" lon="14.833941369539">
        <ele>186.8</ele>
        <time>2019-11-18T18:35:53Z</time>
      </trkpt>
      <trkpt lat="56.890025880757" lon="14.833916642934">
        <ele>187.4</ele>
        <time>2019-11-18T18:35:55Z</time>
      </trkpt>
      <trkpt lat="56.890083129134" lon="14.833899292401">
        <ele>188.4</ele>
        <time>2019-11-18T18:35:59Z</time>
      </trkpt>
      <trkpt lat="56.890092768319" lon="14.8338926707">
        <ele>188.6</ele>
        <time>2019-11-18T18:36:00Z</time>
      </trkpt>
      <trkpt lat="56.890098719468" lon="14.833888312112">
        <ele>188.6</ele>
        <time>2019-11-18T18:36:01Z</time>
      </trkpt>
      <trkpt lat="56.890124200444" lon="14.833874314339">
        <ele>188.2</ele>
        <time>2019-11-18T18:36:04Z</time>
      </trkpt>
      <trkpt lat="56.890175916767" lon="14.833865764801">
        <ele>187.4</ele>
        <time>2019-11-18T18:36:06Z</time>
      </trkpt>
      <trkpt lat="56.890196117146" lon="14.833863166412">
        <ele>187</ele>
        <time>2019-11-18T18:36:07Z</time>
      </trkpt>
      <trkpt lat="56.890228136004" lon="14.833845480603">
        <ele>186.4</ele>
        <time>2019-11-18T18:36:09Z</time>
      </trkpt>
      <trkpt lat="56.890347829536" lon="14.833825028767">
        <ele>184.4</ele>
        <time>2019-11-18T18:36:14Z</time>
      </trkpt>
      <trkpt lat="56.89035503797" lon="14.833827627156">
        <ele>185</ele>
        <time>2019-11-18T18:36:15Z</time>
      </trkpt>
      <trkpt lat="56.890358809825" lon="14.833827543337">
        <ele>185.8</ele>
        <time>2019-11-18T18:36:16Z</time>
      </trkpt>
      <trkpt lat="56.890365766802" lon="14.833835506142">
        <ele>186.2</ele>
        <time>2019-11-18T18:36:17Z</time>
      </trkpt>
      <trkpt lat="56.890373897245" lon="14.83385159939">
        <ele>187</ele>
        <time>2019-11-18T18:36:18Z</time>
      </trkpt>
      <trkpt lat="56.890441455359" lon="14.833900968781">
        <ele>186.8</ele>
        <time>2019-11-18T18:36:22Z</time>
      </trkpt>
      <trkpt lat="56.890561651805" lon="14.834020746132">
        <ele>188.4</ele>
        <time>2019-11-18T18:36:28Z</time>
      </trkpt>
      <trkpt lat="56.890615212146" lon="14.834083694201">
        <ele>189.8</ele>
        <time>2019-11-18T18:36:31Z</time>
      </trkpt>
      <trkpt lat="56.890798021385" lon="14.834204812656">
        <ele>190.4</ele>
        <time>2019-11-18T18:36:38Z</time>
      </trkpt>
      <trkpt lat="56.890900112927" lon="14.834183438811">
        <ele>190.6</ele>
        <time>2019-11-18T18:36:44Z</time>
      </trkpt>
      <trkpt lat="56.890918050193" lon="14.834172458522">
        <ele>191</ele>
        <time>2019-11-18T18:36:45Z</time>
      </trkpt>
      <trkpt lat="56.890986446497" lon="14.834140858759">
        <ele>192.2</ele>
        <time>2019-11-18T18:36:49Z</time>
      </trkpt>
      <trkpt lat="56.891036151164" lon="14.834131219574">
        <ele>192.6</ele>
        <time>2019-11-18T18:36:51Z</time>
      </trkpt>
      <trkpt lat="56.891126759503" lon="14.834173296712">
        <ele>192.4</ele>
        <time>2019-11-18T18:36:58Z</time>
      </trkpt>
      <trkpt lat="56.891185181346" lon="14.834276394082">
        <ele>191.6</ele>
        <time>2019-11-18T18:37:02Z</time>
      </trkpt>
      <trkpt lat="56.891218625127" lon="14.834352082639">
        <ele>192</ele>
        <time>2019-11-18T18:37:05Z</time>
      </trkpt>
      <trkpt lat="56.891289452182" lon="14.834431459232">
        <ele>193.2</ele>
        <time>2019-11-18T18:37:09Z</time>
      </trkpt>
      <trkpt lat="56.891342341971" lon="14.834467920497">
        <ele>194.4</ele>
        <time>2019-11-18T18:37:12Z</time>
      </trkpt>
      <trkpt lat="56.891456000535" lon="14.834546626538">
        <ele>195.4</ele>
        <time>2019-11-18T18:37:16Z</time>
      </trkpt>
      <trkpt lat="56.891630092598" lon="14.834663134948">
        <ele>196.2</ele>
        <time>2019-11-18T18:37:22Z</time>
      </trkpt>
      <trkpt lat="56.891807285964" lon="14.834783918127">
        <ele>195.4</ele>
        <time>2019-11-18T18:37:29Z</time>
      </trkpt>
      <trkpt lat="56.891983808778" lon="14.834931942481">
        <ele>194.6</ele>
        <time>2019-11-18T18:37:36Z</time>
      </trkpt>
      <trkpt lat="56.892018593663" lon="14.834966811185">
        <ele>194.4</ele>
        <time>2019-11-18T18:37:38Z</time>
      </trkpt>
      <trkpt lat="56.892207354051" lon="14.835112488607">
        <ele>194</ele>
        <time>2019-11-18T18:37:45Z</time>
      </trkpt>
      <trkpt lat="56.892393599869" lon="14.835222542954">
        <ele>193.8</ele>
        <time>2019-11-18T18:37:52Z</time>
      </trkpt>
      <trkpt lat="56.892440287052" lon="14.835242743333">
        <ele>193</ele>
        <time>2019-11-18T18:37:54Z</time>
      </trkpt>
      <trkpt lat="56.892507677528" lon="14.835252047242">
        <ele>191.8</ele>
        <time>2019-11-18T18:37:57Z</time>
      </trkpt>
      <trkpt lat="56.892560818774" lon="14.835239390573">
        <ele>190.4</ele>
        <time>2019-11-18T18:38:00Z</time>
      </trkpt>
      <trkpt lat="56.892599375514" lon="14.835223381144">
        <ele>189.2</ele>
        <time>2019-11-18T18:38:02Z</time>
      </trkpt>
      <trkpt lat="56.892655618063" lon="14.835222962049">
        <ele>188</ele>
        <time>2019-11-18T18:38:04Z</time>
      </trkpt>
      <trkpt lat="56.892699120124" lon="14.835212317036">
        <ele>186.8</ele>
        <time>2019-11-18T18:38:06Z</time>
      </trkpt>
      <trkpt lat="56.892746477859" lon="14.835194798865">
        <ele>185.2</ele>
        <time>2019-11-18T18:38:08Z</time>
      </trkpt>
      <trkpt lat="56.892823256063" lon="14.835171245726">
        <ele>184</ele>
        <time>2019-11-18T18:38:11Z</time>
      </trkpt>
      <trkpt lat="56.892976812471" lon="14.835094970436">
        <ele>182.8</ele>
        <time>2019-11-18T18:38:16Z</time>
      </trkpt>
      <trkpt lat="56.893139169874" lon="14.834904198392">
        <ele>181.6</ele>
        <time>2019-11-18T18:38:23Z</time>
      </trkpt>
      <trkpt lat="56.893156771864" lon="14.834873101543">
        <ele>181.4</ele>
        <time>2019-11-18T18:38:24Z</time>
      </trkpt>
      <trkpt lat="56.893267496763" lon="14.834584848002">
        <ele>181</ele>
        <time>2019-11-18T18:38:30Z</time>
      </trkpt>
      <trkpt lat="56.893296498137" lon="14.834451827249">
        <ele>180.6</ele>
        <time>2019-11-18T18:38:33Z</time>
      </trkpt>
      <trkpt lat="56.893360954948" lon="14.834170698323">
        <ele>181.4</ele>
        <time>2019-11-18T18:38:40Z</time>
      </trkpt>
      <trkpt lat="56.893518115573" lon="14.833969951818">
        <ele>180.6</ele>
        <time>2019-11-18T18:38:47Z</time>
      </trkpt>
      <trkpt lat="56.893656752199" lon="14.833731822039">
        <ele>179.8</ele>
        <time>2019-11-18T18:38:54Z</time>
      </trkpt>
      <trkpt lat="56.893741828484" lon="14.833436360064">
        <ele>180</ele>
        <time>2019-11-18T18:39:01Z</time>
      </trkpt>
      <trkpt lat="56.89376730946" lon="14.833270230806">
        <ele>179.8</ele>
        <time>2019-11-18T18:39:05Z</time>
      </trkpt>
      <trkpt lat="56.893819696335" lon="14.833136371863">
        <ele>179.4</ele>
        <time>2019-11-18T18:39:09Z</time>
      </trkpt>
      <trkpt lat="56.893919105669" lon="14.833007122965">
        <ele>178.2</ele>
        <time>2019-11-18T18:39:14Z</time>
      </trkpt>
      <trkpt lat="56.893974174752" lon="14.832857254593">
        <ele>177.2</ele>
        <time>2019-11-18T18:39:19Z</time>
      </trkpt>
      <trkpt lat="56.893991609104" lon="14.832810902686">
        <ele>177</ele>
        <time>2019-11-18T18:39:20Z</time>
      </trkpt>
      <trkpt lat="56.894006025972" lon="14.832769077005">
        <ele>176.8</ele>
        <time>2019-11-18T18:39:21Z</time>
      </trkpt>
      <trkpt lat="56.893999655728" lon="14.832594901123">
        <ele>177.2</ele>
        <time>2019-11-18T18:39:26Z</time>
      </trkpt>
      <trkpt lat="56.893980880272" lon="14.832542095153">
        <ele>178</ele>
        <time>2019-11-18T18:39:28Z</time>
      </trkpt>
      <trkpt lat="56.893970570535" lon="14.832517787643">
        <ele>178.4</ele>
        <time>2019-11-18T18:39:29Z</time>
      </trkpt>
      <trkpt lat="56.893935115098" lon="14.832403374708">
        <ele>179.6</ele>
        <time>2019-11-18T18:39:33Z</time>
      </trkpt>
      <trkpt lat="56.893939808962" lon="14.832368086909">
        <ele>180</ele>
        <time>2019-11-18T18:39:34Z</time>
      </trkpt>
      <trkpt lat="56.893931175605" lon="14.832263899892">
        <ele>180.6</ele>
        <time>2019-11-18T18:39:37Z</time>
      </trkpt>
      <trkpt lat="56.893925475913" lon="14.832226013704">
        <ele>180.6</ele>
        <time>2019-11-18T18:39:38Z</time>
      </trkpt>
      <trkpt lat="56.89390141986" lon="14.831931809014">
        <ele>181.4</ele>
        <time>2019-11-18T18:39:47Z</time>
      </trkpt>
      <trkpt lat="56.893816343575" lon="14.831766098851">
        <ele>181</ele>
        <time>2019-11-18T18:39:53Z</time>
      </trkpt>
      <trkpt lat="56.893692626731" lon="14.831509109797">
        <ele>180.4</ele>
        <time>2019-11-18T18:40:03Z</time>
      </trkpt>
      <trkpt lat="56.893579051986" lon="14.831353206457">
        <ele>180.4</ele>
        <time>2019-11-18T18:40:08Z</time>
      </trkpt>
      <trkpt lat="56.893557259046" lon="14.831305010532">
        <ele>180.2</ele>
        <time>2019-11-18T18:40:10Z</time>
      </trkpt>
      <trkpt lat="56.893547033128" lon="14.831257988073">
        <ele>180</ele>
        <time>2019-11-18T18:40:12Z</time>
      </trkpt>
      <trkpt lat="56.893537729219" lon="14.831208618682">
        <ele>180</ele>
        <time>2019-11-18T18:40:14Z</time>
      </trkpt>
      <trkpt lat="56.893517696478" lon="14.831145000061">
        <ele>180</ele>
        <time>2019-11-18T18:40:16Z</time>
      </trkpt>
      <trkpt lat="56.893487102543" lon="14.831021450855">
        <ele>179.6</ele>
        <time>2019-11-18T18:40:20Z</time>
      </trkpt>
      <trkpt lat="56.893471931304" lon="14.830958418967">
        <ele>178.4</ele>
        <time>2019-11-18T18:40:22Z</time>
      </trkpt>
      <trkpt lat="56.893449467812" lon="14.83087434851">
        <ele>178.2</ele>
        <time>2019-11-18T18:40:25Z</time>
      </trkpt>
      <trkpt lat="56.893435218582" lon="14.830797821763">
        <ele>178.6</ele>
        <time>2019-11-18T18:40:27Z</time>
      </trkpt>
      <trkpt lat="56.893411581624" lon="14.830520967606">
        <ele>177.2</ele>
        <time>2019-11-18T18:40:34Z</time>
      </trkpt>
      <trkpt lat="56.893398170584" lon="14.830485093074">
        <ele>174.2</ele>
        <time>2019-11-18T18:40:35Z</time>
      </trkpt>
      <trkpt lat="56.893349639383" lon="14.83040999125">
        <ele>173.2</ele>
        <time>2019-11-18T18:40:37Z</time>
      </trkpt>
      <trkpt lat="56.893265149831" lon="14.830284681845">
        <ele>173.4</ele>
        <time>2019-11-18T18:40:41Z</time>
      </trkpt>
      <trkpt lat="56.89324679347" lon="14.830232462608">
        <ele>173.8</ele>
        <time>2019-11-18T18:40:43Z</time>
      </trkpt>
      <trkpt lat="56.893207901454" lon="14.830152080187">
        <ele>174.4</ele>
        <time>2019-11-18T18:40:45Z</time>
      </trkpt>
      <trkpt lat="56.893169596171" lon="14.83007806801">
        <ele>175.6</ele>
        <time>2019-11-18T18:40:48Z</time>
      </trkpt>
      <trkpt lat="56.893130033603" lon="14.83002107109">
        <ele>176.8</ele>
        <time>2019-11-18T18:40:52Z</time>
      </trkpt>
      <trkpt lat="56.893058955091" lon="14.830001122168">
        <ele>178</ele>
        <time>2019-11-18T18:40:56Z</time>
      </trkpt>
      <trkpt lat="56.892992151348" lon="14.829987292033">
        <ele>179.2</ele>
        <time>2019-11-18T18:40:59Z</time>
      </trkpt>
      <trkpt lat="56.892894921308" lon="14.829968097482">
        <ele>180.4</ele>
        <time>2019-11-18T18:41:03Z</time>
      </trkpt>
      <trkpt lat="56.892816718181" lon="14.829993243182">
        <ele>181.6</ele>
        <time>2019-11-18T18:41:08Z</time>
      </trkpt>
      <trkpt lat="56.892665173429" lon="14.829963822713">
        <ele>181.8</ele>
        <time>2019-11-18T18:41:16Z</time>
      </trkpt>
      <trkpt lat="56.892630891458" lon="14.82999676358">
        <ele>181.6</ele>
        <time>2019-11-18T18:41:18Z</time>
      </trkpt>
      <trkpt lat="56.892488566796" lon="14.830094915629">
        <ele>182.8</ele>
        <time>2019-11-18T18:41:27Z</time>
      </trkpt>
      <trkpt lat="56.892436431378" lon="14.830109248678">
        <ele>183.8</ele>
        <time>2019-11-18T18:41:30Z</time>
      </trkpt>
      <trkpt lat="56.892396617353" lon="14.830185859244">
        <ele>184.8</ele>
        <time>2019-11-18T18:41:33Z</time>
      </trkpt>
      <trkpt lat="56.892274660708" lon="14.830316365427">
        <ele>186</ele>
        <time>2019-11-18T18:41:41Z</time>
      </trkpt>
      <trkpt lat="56.892172485347" lon="14.83039071288">
        <ele>187.2</ele>
        <time>2019-11-18T18:41:47Z</time>
      </trkpt>
      <trkpt lat="56.892062431" lon="14.830450811103">
        <ele>187.6</ele>
        <time>2019-11-18T18:41:53Z</time>
      </trkpt>
      <trkpt lat="56.892049439055" lon="14.830454163863">
        <ele>187.4</ele>
        <time>2019-11-18T18:41:55Z</time>
      </trkpt>
      <trkpt lat="56.892011049953" lon="14.830414349838">
        <ele>186.6</ele>
        <time>2019-11-18T18:41:57Z</time>
      </trkpt>
      <trkpt lat="56.891981461846" lon="14.83039574202">
        <ele>186.2</ele>
        <time>2019-11-18T18:41:59Z</time>
      </trkpt>
      <trkpt lat="56.891912059714" lon="14.830326758983">
        <ele>185</ele>
        <time>2019-11-18T18:42:03Z</time>
      </trkpt>
      <trkpt lat="56.891794461657" lon="14.830233719893">
        <ele>183.8</ele>
        <time>2019-11-18T18:42:08Z</time>
      </trkpt>
      <trkpt lat="56.891722293498" lon="14.830188792909">
        <ele>183.8</ele>
        <time>2019-11-18T18:42:11Z</time>
      </trkpt>
      <trkpt lat="56.891671080089" lon="14.830223577794">
        <ele>183.6</ele>
        <time>2019-11-18T18:42:15Z</time>
      </trkpt>
      <trkpt lat="56.891654735384" lon="14.830237994662">
        <ele>182.8</ele>
        <time>2019-11-18T18:42:16Z</time>
      </trkpt>
      <trkpt lat="56.891639396507" lon="14.830230115676">
        <ele>181.6</ele>
        <time>2019-11-18T18:42:17Z</time>
      </trkpt>
      <trkpt lat="56.891605701269" lon="14.830186445977">
        <ele>180</ele>
        <time>2019-11-18T18:42:19Z</time>
      </trkpt>
      <trkpt lat="56.891572173669" lon="14.830152247825">
        <ele>179.2</ele>
        <time>2019-11-18T18:42:21Z</time>
      </trkpt>
      <trkpt lat="56.891549039625" lon="14.830144787934">
        <ele>179</ele>
        <time>2019-11-18T18:42:22Z</time>
      </trkpt>
      <trkpt lat="56.891519367699" lon="14.830124336098">
        <ele>178.6</ele>
        <time>2019-11-18T18:42:23Z</time>
      </trkpt>
      <trkpt lat="56.891479553674" lon="14.830078151829">
        <ele>177.8</ele>
        <time>2019-11-18T18:42:25Z</time>
      </trkpt>
      <trkpt lat="56.891466058815" lon="14.830016796321">
        <ele>176.6</ele>
        <time>2019-11-18T18:42:28Z</time>
      </trkpt>
      <trkpt lat="56.891464969168" lon="14.82992384105">
        <ele>176</ele>
        <time>2019-11-18T18:42:32Z</time>
      </trkpt>
      <trkpt lat="56.891452899232" lon="14.829899952635">
        <ele>175.2</ele>
        <time>2019-11-18T18:42:33Z</time>
      </trkpt>
      <trkpt lat="56.891463460426" lon="14.829864748655">
        <ele>174.6</ele>
        <time>2019-11-18T18:42:34Z</time>
      </trkpt>
      <trkpt lat="56.891465136806" lon="14.82983247834">
        <ele>174.2</ele>
        <time>2019-11-18T18:42:35Z</time>
      </trkpt>
      <trkpt lat="56.891458347467" lon="14.829780342922">
        <ele>173.6</ele>
        <time>2019-11-18T18:42:36Z</time>
      </trkpt>
      <trkpt lat="56.891454072698" lon="14.829734829205">
        <ele>173</ele>
        <time>2019-11-18T18:42:37Z</time>
      </trkpt>
      <trkpt lat="56.89144971411" lon="14.829705576374">
        <ele>172.4</ele>
        <time>2019-11-18T18:42:38Z</time>
      </trkpt>
      <trkpt lat="56.891448289187" lon="14.829650172015">
        <ele>171.8</ele>
        <time>2019-11-18T18:42:40Z</time>
      </trkpt>
      <trkpt lat="56.891456838725" lon="14.829588900326">
        <ele>171.4</ele>
        <time>2019-11-18T18:42:42Z</time>
      </trkpt>
      <trkpt lat="56.891456922544" lon="14.829557384382">
        <ele>171.2</ele>
        <time>2019-11-18T18:42:43Z</time>
      </trkpt>
      <trkpt lat="56.891435213423" lon="14.829512876493">
        <ele>170.6</ele>
        <time>2019-11-18T18:42:45Z</time>
      </trkpt>
      <trkpt lat="56.891367906766" lon="14.829462585093">
        <ele>170</ele>
        <time>2019-11-18T18:42:47Z</time>
      </trkpt>
      <trkpt lat="56.891314514063" lon="14.829426291466">
        <ele>169.2</ele>
        <time>2019-11-18T18:42:49Z</time>
      </trkpt>
      <trkpt lat="56.891300683928" lon="14.829413970073">
        <ele>168.8</ele>
        <time>2019-11-18T18:42:50Z</time>
      </trkpt>
      <trkpt lat="56.891269000346" lon="14.82936141556">
        <ele>168</ele>
        <time>2019-11-18T18:42:53Z</time>
      </trkpt>
      <trkpt lat="56.891236897669" lon="14.829324032286">
        <ele>168</ele>
        <time>2019-11-18T18:42:54Z</time>
      </trkpt>
      <trkpt lat="56.891186270993" lon="14.829273573248">
        <ele>167.8</ele>
        <time>2019-11-18T18:42:56Z</time>
      </trkpt>
      <trkpt lat="56.891046293263" lon="14.829153376802">
        <ele>167</ele>
        <time>2019-11-18T18:43:00Z</time>
      </trkpt>
      <trkpt lat="56.890871530648" lon="14.829046591396">
        <ele>167</ele>
        <time>2019-11-18T18:43:07Z</time>
      </trkpt>
      <trkpt lat="56.890690565427" lon="14.828962772396">
        <ele>166.4</ele>
        <time>2019-11-18T18:43:14Z</time>
      </trkpt>
      <trkpt lat="56.89055787995" lon="14.828866632003">
        <ele>167.2</ele>
        <time>2019-11-18T18:43:20Z</time>
      </trkpt>
      <trkpt lat="56.890393678529" lon="14.828758505493">
        <ele>168.6</ele>
        <time>2019-11-18T18:43:26Z</time>
      </trkpt>
      <trkpt lat="56.890361408214" lon="14.828720786943">
        <ele>168.6</ele>
        <time>2019-11-18T18:43:31Z</time>
      </trkpt>
      <trkpt lat="56.89030307019" lon="14.828569661286">
        <ele>169.2</ele>
        <time>2019-11-18T18:43:36Z</time>
      </trkpt>
      <trkpt lat="56.890270799875" lon="14.828483914449">
        <ele>169.4</ele>
        <time>2019-11-18T18:43:38Z</time>
      </trkpt>
      <trkpt lat="56.890204079951" lon="14.828169174104">
        <ele>168.4</ele>
        <time>2019-11-18T18:43:44Z</time>
      </trkpt>
      <trkpt lat="56.890210534014" lon="14.828140424187">
        <ele>168.2</ele>
        <time>2019-11-18T18:43:45Z</time>
      </trkpt>
      <trkpt lat="56.89020919291" lon="14.828117876876">
        <ele>168.2</ele>
        <time>2019-11-18T18:43:46Z</time>
      </trkpt>
      <trkpt lat="56.890194356947" lon="14.827795006088">
        <ele>167.8</ele>
        <time>2019-11-18T18:43:51Z</time>
      </trkpt>
      <trkpt lat="56.890225202339" lon="14.827441289908">
        <ele>167.8</ele>
        <time>2019-11-18T18:43:58Z</time>
      </trkpt>
      <trkpt lat="56.890237188456" lon="14.827076928715">
        <ele>168.4</ele>
        <time>2019-11-18T18:44:06Z</time>
      </trkpt>
      <trkpt lat="56.890297538136" lon="14.826741149801">
        <ele>168.6</ele>
        <time>2019-11-18T18:44:13Z</time>
      </trkpt>
      <trkpt lat="56.8903273777" lon="14.826441748333">
        <ele>169.4</ele>
        <time>2019-11-18T18:44:19Z</time>
      </trkpt>
      <trkpt lat="56.890346069337" lon="14.826085685221">
        <ele>169</ele>
        <time>2019-11-18T18:44:26Z</time>
      </trkpt>
      <trkpt lat="56.890414465641" lon="14.82575216942">
        <ele>169.4</ele>
        <time>2019-11-18T18:44:33Z</time>
      </trkpt>
      <trkpt lat="56.89051345588" lon="14.825558296073">
        <ele>170.4</ele>
        <time>2019-11-18T18:44:38Z</time>
      </trkpt>
      <trkpt lat="56.890676316197" lon="14.825354783541">
        <ele>170</ele>
        <time>2019-11-18T18:44:44Z</time>
      </trkpt>
      <trkpt lat="56.890818054126" lon="14.825138949616">
        <ele>170</ele>
        <time>2019-11-18T18:44:50Z</time>
      </trkpt>
      <trkpt lat="56.890928024654" lon="14.824835692474">
        <ele>171</ele>
        <time>2019-11-18T18:44:59Z</time>
      </trkpt>
      <trkpt lat="56.890953757087" lon="14.82477819264">
        <ele>171.8</ele>
        <time>2019-11-18T18:45:01Z</time>
      </trkpt>
      <trkpt lat="56.891016118423" lon="14.824682722799">
        <ele>172.8</ele>
        <time>2019-11-18T18:45:05Z</time>
      </trkpt>
      <trkpt lat="56.891096584663" lon="14.824499243008">
        <ele>173.8</ele>
        <time>2019-11-18T18:45:11Z</time>
      </trkpt>
      <trkpt lat="56.891194233798" lon="14.824191208183">
        <ele>173.8</ele>
        <time>2019-11-18T18:45:20Z</time>
      </trkpt>
      <trkpt lat="56.89131225095" lon="14.82388887305">
        <ele>173.8</ele>
        <time>2019-11-18T18:45:27Z</time>
      </trkpt>
      <trkpt lat="56.891325745809" lon="14.823811927208">
        <ele>173.6</ele>
        <time>2019-11-18T18:45:29Z</time>
      </trkpt>
      <trkpt lat="56.891333373338" lon="14.823747721854">
        <ele>173.4</ele>
        <time>2019-11-18T18:45:31Z</time>
      </trkpt>
    </trkseg>
  </trk>
</gpx>